<?xml version='1.0' encoding='UTF-8'?><gpx version="1.1" creator="JPX - https://github.com/jenetics/jpx" xmlns="http://www.topografix.com/GPX/1/1"><trk><trkseg><trkpt lat="43.777971016935666" lon="11.589167627489699"><ele>1026.0</ele><time>2026-05-05T15:40:07Z</time></trkpt><trkpt lat="43.777981909594985" lon="11.589067043666098"><ele>1026.0</ele><time>2026-05-05T15:40:11Z</time></trkpt><trkpt lat="43.777969756279774" lon="11.588956619448243"><ele>1026.0</ele><time>2026-05-05T15:40:14.999Z</time></trkpt><trkpt lat="43.77797061341728" lon="11.588850755257646"><ele>1026.0</ele><time>2026-05-05T15:40:17.999Z</time></trkpt><trkpt lat="43.77799750036723" lon="11.58876015845769"><ele>1026.0</ele><time>2026-05-05T15:40:20.999Z</time></trkpt><trkpt lat="43.77805650291727" lon="11.588671747780136"><ele>1026.0</ele><time>2026-05-05T15:40:23.999Z</time></trkpt><trkpt lat="43.77815098119777" lon="11.58870378033686"><ele>1026.0</ele><time>2026-05-05T15:40:26.999Z</time></trkpt><trkpt lat="43.77819092492819" lon="11.588825572848156"><ele>1026.0</ele><time>2026-05-05T15:40:28.999Z</time></trkpt><trkpt lat="43.77822044505617" lon="11.588960417046641"><ele>1026.0</ele><time>2026-05-05T15:40:30.999Z</time></trkpt><trkpt lat="43.7782523634994" lon="11.589088812863874"><ele>1026.0</ele><time>2026-05-05T15:40:32.999Z</time></trkpt><trkpt lat="43.77828691347148" lon="11.589217361677678"><ele>1026.0</ele><time>2026-05-05T15:40:34.999Z</time></trkpt><trkpt lat="43.77831669491478" lon="11.589359565576625"><ele>1026.0</ele><time>2026-05-05T15:40:36.999Z</time></trkpt><trkpt lat="43.778326215747704" lon="11.589507827336131"><ele>1026.0</ele><time>2026-05-05T15:40:38.999Z</time></trkpt><trkpt lat="43.77832790179631" lon="11.589646413416958"><ele>1026.0</ele><time>2026-05-05T15:40:40.999Z</time></trkpt><trkpt lat="43.77836189716542" lon="11.589723598806861"><ele>1026.0</ele><time>2026-05-05T15:40:44.999Z</time></trkpt><trkpt lat="43.77847062478844" lon="11.589650380983024"><ele>1026.0</ele><time>2026-05-05T15:40:46.999Z</time></trkpt><trkpt lat="43.778524381852115" lon="11.58959412597034"><ele>1021.8</ele><time>2026-05-05T15:40:47.999Z</time></trkpt><trkpt lat="43.778588172933624" lon="11.58951726827325"><ele>1017.5999999999999</ele><time>2026-05-05T15:40:48.999Z</time></trkpt><trkpt lat="43.77865170689092" lon="11.589424084425119"><ele>1013.4</ele><time>2026-05-05T15:40:49.999Z</time></trkpt><trkpt lat="43.77872447729813" lon="11.589317564648796"><ele>1009.2</ele><time>2026-05-05T15:40:50.999Z</time></trkpt><trkpt lat="43.77879584011019" lon="11.589184726769169"><ele>1005.0</ele><time>2026-05-05T15:40:51.998Z</time></trkpt><trkpt lat="43.778851837495175" lon="11.589045203625306"><ele>1005.0</ele><time>2026-05-05T15:40:52.998Z</time></trkpt><trkpt lat="43.778897080281595" lon="11.588880829647632"><ele>1005.0</ele><time>2026-05-05T15:40:53.998Z</time></trkpt><trkpt lat="43.77893342325188" lon="11.588702270946559"><ele>1005.0</ele><time>2026-05-05T15:40:54.998Z</time></trkpt><trkpt lat="43.778968942197615" lon="11.588525914370097"><ele>1005.0</ele><time>2026-05-05T15:40:55.998Z</time></trkpt><trkpt lat="43.77898414282754" lon="11.588337338852327"><ele>1006.25</ele><time>2026-05-05T15:40:56.998Z</time></trkpt><trkpt lat="43.77898406802947" lon="11.588139640283499"><ele>1007.5</ele><time>2026-05-05T15:40:57.998Z</time></trkpt><trkpt lat="43.77896599215712" lon="11.587950121528268"><ele>1008.75</ele><time>2026-05-05T15:40:58.998Z</time></trkpt><trkpt lat="43.77895250098003" lon="11.587758492080388"><ele>1010.0</ele><time>2026-05-05T15:40:59.998Z</time></trkpt><trkpt lat="43.778950585376485" lon="11.587580274125173"><ele>1011.0</ele><time>2026-05-05T15:41:00.998Z</time></trkpt><trkpt lat="43.778961812722855" lon="11.587400461518136"><ele>1012.0</ele><time>2026-05-05T15:41:01.998Z</time></trkpt><trkpt lat="43.77899849502371" lon="11.587228684021527"><ele>1013.0</ele><time>2026-05-05T15:41:02.998Z</time></trkpt><trkpt lat="43.77903554283835" lon="11.587059475657952"><ele>1014.0</ele><time>2026-05-05T15:41:03.998Z</time></trkpt><trkpt lat="43.77909268036582" lon="11.586901823190962"><ele>1014.75</ele><time>2026-05-05T15:41:04.998Z</time></trkpt><trkpt lat="43.77916052361595" lon="11.58674070999007"><ele>1015.5</ele><time>2026-05-05T15:41:05.998Z</time></trkpt><trkpt lat="43.7792568176059" lon="11.58661337433138"><ele>1016.25</ele><time>2026-05-05T15:41:06.998Z</time></trkpt><trkpt lat="43.779356523562655" lon="11.586493769676574"><ele>1017.0</ele><time>2026-05-05T15:41:07.998Z</time></trkpt><trkpt lat="43.77945271689074" lon="11.586373380344536"><ele>1017.0</ele><time>2026-05-05T15:41:08.998Z</time></trkpt><trkpt lat="43.77954269798864" lon="11.586260562037829"><ele>1017.0</ele><time>2026-05-05T15:41:09.998Z</time></trkpt><trkpt lat="43.77960823979021" lon="11.586144078372719"><ele>1017.0</ele><time>2026-05-05T15:41:10.998Z</time></trkpt><trkpt lat="43.77963877996833" lon="11.585997803377202"><ele>1017.0</ele><time>2026-05-05T15:41:11.998Z</time></trkpt><trkpt lat="43.77963076074269" lon="11.585831482268949"><ele>1017.2</ele><time>2026-05-05T15:41:12.998Z</time></trkpt><trkpt lat="43.77962120852373" lon="11.585678518946894"><ele>1017.4000000000001</ele><time>2026-05-05T15:41:13.998Z</time></trkpt><trkpt lat="43.779649547269344" lon="11.585560422623233"><ele>1017.5999999999999</ele><time>2026-05-05T15:41:14.998Z</time></trkpt><trkpt lat="43.779745141786115" lon="11.585496990185295"><ele>1017.8</ele><time>2026-05-05T15:41:15.998Z</time></trkpt><trkpt lat="43.77986856688503" lon="11.585448194565927"><ele>1018.0</ele><time>2026-05-05T15:41:16.998Z</time></trkpt><trkpt lat="43.77998319570748" lon="11.585367230754375"><ele>1016.0</ele><time>2026-05-05T15:41:17.998Z</time></trkpt><trkpt lat="43.78010613932644" lon="11.585286181374313"><ele>1014.0</ele><time>2026-05-05T15:41:18.998Z</time></trkpt><trkpt lat="43.780221098324645" lon="11.5851624673273"><ele>1012.0</ele><time>2026-05-05T15:41:19.998Z</time></trkpt><trkpt lat="43.780320882219" lon="11.585004633523866"><ele>1010.0</ele><time>2026-05-05T15:41:20.998Z</time></trkpt><trkpt lat="43.78041790794879" lon="11.584838340280086"><ele>1009.3333333333334</ele><time>2026-05-05T15:41:21.998Z</time></trkpt><trkpt lat="43.78051296111624" lon="11.584669577699746"><ele>1008.6666666666667</ele><time>2026-05-05T15:41:22.998Z</time></trkpt><trkpt lat="43.78062909060622" lon="11.584524168314061"><ele>1008.0</ele><time>2026-05-05T15:41:23.998Z</time></trkpt><trkpt lat="43.78074697377024" lon="11.584402227231426"><ele>1004.75</ele><time>2026-05-05T15:41:24.998Z</time></trkpt><trkpt lat="43.78084423120422" lon="11.58428066377137"><ele>1001.5</ele><time>2026-05-05T15:41:25.998Z</time></trkpt><trkpt lat="43.7808938305081" lon="11.584128001503684"><ele>998.25</ele><time>2026-05-05T15:41:26.998Z</time></trkpt><trkpt lat="43.78088653932569" lon="11.583945027038498"><ele>995.0</ele><time>2026-05-05T15:41:27.998Z</time></trkpt><trkpt lat="43.78086828878128" lon="11.583770334115904"><ele>996.0</ele><time>2026-05-05T15:41:28.998Z</time></trkpt><trkpt lat="43.78089416345641" lon="11.58362968154738"><ele>997.0</ele><time>2026-05-05T15:41:29.997Z</time></trkpt><trkpt lat="43.78097367779692" lon="11.583542965502588"><ele>998.0</ele><time>2026-05-05T15:41:30.997Z</time></trkpt><trkpt lat="43.7810765514485" lon="11.583536694841817"><ele>999.0</ele><time>2026-05-05T15:41:31.997Z</time></trkpt><trkpt lat="43.78117916426399" lon="11.583507925153663"><ele>1000.0</ele><time>2026-05-05T15:41:32.997Z</time></trkpt><trkpt lat="43.78126403688461" lon="11.583447793345714"><ele>1000.0</ele><time>2026-05-05T15:41:33.997Z</time></trkpt><trkpt lat="43.78132718899021" lon="11.58334191821147"><ele>1000.0</ele><time>2026-05-05T15:41:34.997Z</time></trkpt><trkpt lat="43.781335929857505" lon="11.583181986833983"><ele>1000.0</ele><time>2026-05-05T15:41:35.997Z</time></trkpt><trkpt lat="43.78132437643623" lon="11.583007578297924"><ele>1000.0</ele><time>2026-05-05T15:41:36.997Z</time></trkpt><trkpt lat="43.78133308666155" lon="11.582826850363416"><ele>997.25</ele><time>2026-05-05T15:41:37.997Z</time></trkpt><trkpt lat="43.78134851060076" lon="11.582642682453754"><ele>994.5</ele><time>2026-05-05T15:41:38.997Z</time></trkpt><trkpt lat="43.78135907154752" lon="11.582453694599826"><ele>991.75</ele><time>2026-05-05T15:41:39.997Z</time></trkpt><trkpt lat="43.781365077268404" lon="11.58227947346033"><ele>989.0</ele><time>2026-05-05T15:41:40.997Z</time></trkpt><trkpt lat="43.78140593498344" lon="11.582134645816755"><ele>983.25</ele><time>2026-05-05T15:41:41.997Z</time></trkpt><trkpt lat="43.78147342927794" lon="11.582014550745937"><ele>977.5</ele><time>2026-05-05T15:41:42.997Z</time></trkpt><trkpt lat="43.78158316469722" lon="11.581944555056456"><ele>971.75</ele><time>2026-05-05T15:41:43.997Z</time></trkpt><trkpt lat="43.78171237284873" lon="11.581922317475401"><ele>966.0</ele><time>2026-05-05T15:41:44.997Z</time></trkpt><trkpt lat="43.781837790736745" lon="11.581857162855272"><ele>969.25</ele><time>2026-05-05T15:41:45.997Z</time></trkpt><trkpt lat="43.781969920147176" lon="11.58180510673069"><ele>972.5</ele><time>2026-05-05T15:41:46.997Z</time></trkpt><trkpt lat="43.78209532336093" lon="11.581714180087806"><ele>975.75</ele><time>2026-05-05T15:41:48Z</time></trkpt><trkpt lat="43.782223028601074" lon="11.581620934627631"><ele>979.0</ele><time>2026-05-05T15:41:49Z</time></trkpt><trkpt lat="43.782349102597394" lon="11.581511621801557"><ele>979.0</ele><time>2026-05-05T15:41:50Z</time></trkpt><trkpt lat="43.78245961833745" lon="11.581364938110829"><ele>979.0</ele><time>2026-05-05T15:41:51Z</time></trkpt><trkpt lat="43.78255536078945" lon="11.58119477755317"><ele>979.0</ele><time>2026-05-05T15:41:52Z</time></trkpt><trkpt lat="43.782634155035346" lon="11.581001378016873"><ele>977.75</ele><time>2026-05-05T15:41:53Z</time></trkpt><trkpt lat="43.78273103432983" lon="11.5808398449713"><ele>976.5</ele><time>2026-05-05T15:41:54Z</time></trkpt><trkpt lat="43.782822239139215" lon="11.580688586443147"><ele>975.25</ele><time>2026-05-05T15:41:55Z</time></trkpt><trkpt lat="43.78288588152013" lon="11.580516591778476"><ele>974.0</ele><time>2026-05-05T15:41:56Z</time></trkpt><trkpt lat="43.78291882605547" lon="11.580321200583272"><ele>970.25</ele><time>2026-05-05T15:41:57Z</time></trkpt><trkpt lat="43.782964423365456" lon="11.580141670901444"><ele>966.5</ele><time>2026-05-05T15:41:58Z</time></trkpt><trkpt lat="43.78305166461828" lon="11.579983632796095"><ele>962.75</ele><time>2026-05-05T15:41:59Z</time></trkpt><trkpt lat="43.78318850643614" lon="11.57989781190748"><ele>959.0</ele><time>2026-05-05T15:42:00Z</time></trkpt><trkpt lat="43.78332851607473" lon="11.579803486967162"><ele>959.0</ele><time>2026-05-05T15:42:01Z</time></trkpt><trkpt lat="43.78346376027576" lon="11.579695891405756"><ele>959.0</ele><time>2026-05-05T15:42:02Z</time></trkpt><trkpt lat="43.78361113637515" lon="11.579608465541714"><ele>959.0</ele><time>2026-05-05T15:42:03Z</time></trkpt><trkpt lat="43.78373906142022" lon="11.579543159283144"><ele>957.2</ele><time>2026-05-05T15:42:04Z</time></trkpt><trkpt lat="43.783838612430685" lon="11.579488689962238"><ele>955.4000000000001</ele><time>2026-05-05T15:42:05Z</time></trkpt><trkpt lat="43.783885134774515" lon="11.579383574996644"><ele>953.6</ele><time>2026-05-05T15:42:06Z</time></trkpt><trkpt lat="43.78389558884007" lon="11.579210709226725"><ele>951.8</ele><time>2026-05-05T15:42:07Z</time></trkpt><trkpt lat="43.78394148422879" lon="11.579046884747013"><ele>950.0</ele><time>2026-05-05T15:42:08Z</time></trkpt><trkpt lat="43.7840283208817" lon="11.578907728040765"><ele>950.0</ele><time>2026-05-05T15:42:09Z</time></trkpt><trkpt lat="43.78412974971256" lon="11.578774661965952"><ele>950.0</ele><time>2026-05-05T15:42:10Z</time></trkpt><trkpt lat="43.78425012428643" lon="11.578658046116779"><ele>950.0</ele><time>2026-05-05T15:42:11Z</time></trkpt><trkpt lat="43.78438763990532" lon="11.578583546847588"><ele>950.0</ele><time>2026-05-05T15:42:12Z</time></trkpt><trkpt lat="43.7845374776468" lon="11.57854457512636"><ele>947.75</ele><time>2026-05-05T15:42:13Z</time></trkpt><trkpt lat="43.784685162205434" lon="11.578505535058104"><ele>945.5</ele><time>2026-05-05T15:42:14Z</time></trkpt><trkpt lat="43.78481976858494" lon="11.578415488777335"><ele>943.25</ele><time>2026-05-05T15:42:15Z</time></trkpt><trkpt lat="43.78494066028863" lon="11.578309534961823"><ele>941.0</ele><time>2026-05-05T15:42:16Z</time></trkpt><trkpt lat="43.785034365461286" lon="11.578156777026662"><ele>941.0</ele><time>2026-05-05T15:42:17Z</time></trkpt><trkpt lat="43.78509385476931" lon="11.577967314064853"><ele>941.0</ele><time>2026-05-05T15:42:18Z</time></trkpt><trkpt lat="43.785113553111636" lon="11.57775362581237"><ele>941.0</ele><time>2026-05-05T15:42:18.999Z</time></trkpt><trkpt lat="43.78514039037197" lon="11.577548448227104"><ele>939.0</ele><time>2026-05-05T15:42:19.999Z</time></trkpt><trkpt lat="43.78518388030482" lon="11.577345443705887"><ele>937.0</ele><time>2026-05-05T15:42:20.999Z</time></trkpt><trkpt lat="43.785238206860015" lon="11.577141188759608"><ele>935.0</ele><time>2026-05-05T15:42:21.999Z</time></trkpt><trkpt lat="43.785310763979226" lon="11.57694303247642"><ele>932.0</ele><time>2026-05-05T15:42:22.999Z</time></trkpt><trkpt lat="43.78535607799877" lon="11.576720624773776"><ele>929.0</ele><time>2026-05-05T15:42:23.999Z</time></trkpt><trkpt lat="43.78541824041804" lon="11.576505644158571"><ele>926.0</ele><time>2026-05-05T15:42:24.999Z</time></trkpt><trkpt lat="43.78545072876029" lon="11.576281652168344"><ele>924.0</ele><time>2026-05-05T15:42:25.999Z</time></trkpt><trkpt lat="43.78545137325601" lon="11.576065395172844"><ele>922.0</ele><time>2026-05-05T15:42:26.999Z</time></trkpt><trkpt lat="43.78545103807545" lon="11.575866523173943"><ele>920.0</ele><time>2026-05-05T15:42:27.999Z</time></trkpt><trkpt lat="43.7855111494462" lon="11.575678608386761"><ele>918.0</ele><time>2026-05-05T15:42:28.999Z</time></trkpt><trkpt lat="43.785587224765806" lon="11.575487147369188"><ele>913.6666666666667</ele><time>2026-05-05T15:42:29.999Z</time></trkpt><trkpt lat="43.78567242935456" lon="11.575298643157875"><ele>909.3333333333334</ele><time>2026-05-05T15:42:30.999Z</time></trkpt><trkpt lat="43.78576785957702" lon="11.575116329964752"><ele>905.0</ele><time>2026-05-05T15:42:31.999Z</time></trkpt><trkpt lat="43.785888384235804" lon="11.574972963823344"><ele>906.6666666666667</ele><time>2026-05-05T15:42:32.999Z</time></trkpt><trkpt lat="43.786022199896756" lon="11.57484480437399"><ele>908.3333333333333</ele><time>2026-05-05T15:42:33.999Z</time></trkpt><trkpt lat="43.78614550588032" lon="11.574701551090596"><ele>910.0</ele><time>2026-05-05T15:42:34.999Z</time></trkpt><trkpt lat="43.78626070909087" lon="11.574537820713058"><ele>907.0</ele><time>2026-05-05T15:42:35.999Z</time></trkpt><trkpt lat="43.786354769019894" lon="11.574345834807593"><ele>904.0</ele><time>2026-05-05T15:42:36.999Z</time></trkpt><trkpt lat="43.786446709729795" lon="11.574144367583768"><ele>901.0</ele><time>2026-05-05T15:42:37.999Z</time></trkpt><trkpt lat="43.78653584181279" lon="11.573946238505236"><ele>901.0</ele><time>2026-05-05T15:42:38.999Z</time></trkpt><trkpt lat="43.78662862102077" lon="11.573745339323185"><ele>901.0</ele><time>2026-05-05T15:42:39.999Z</time></trkpt><trkpt lat="43.786731466298725" lon="11.573567577192863"><ele>901.0</ele><time>2026-05-05T15:42:40.999Z</time></trkpt><trkpt lat="43.78684601427852" lon="11.57340558901403"><ele>899.5</ele><time>2026-05-05T15:42:41.999Z</time></trkpt><trkpt lat="43.78695742326502" lon="11.573260556348478"><ele>898.0</ele><time>2026-05-05T15:42:42.999Z</time></trkpt><trkpt lat="43.78705843618407" lon="11.573128312745226"><ele>896.5</ele><time>2026-05-05T15:42:43.999Z</time></trkpt><trkpt lat="43.78713694349721" lon="11.572986058072306"><ele>895.0</ele><time>2026-05-05T15:42:44.999Z</time></trkpt><trkpt lat="43.787191477966694" lon="11.572805591941727"><ele>893.0</ele><time>2026-05-05T15:42:45.999Z</time></trkpt><trkpt lat="43.78721523989993" lon="11.572600644838937"><ele>891.0</ele><time>2026-05-05T15:42:46.999Z</time></trkpt><trkpt lat="43.78724008180549" lon="11.572388044040434"><ele>889.0</ele><time>2026-05-05T15:42:47.999Z</time></trkpt><trkpt lat="43.787268876844045" lon="11.572171686654483"><ele>887.0</ele><time>2026-05-05T15:42:48.999Z</time></trkpt><trkpt lat="43.787301885836605" lon="11.571959081695823"><ele>885.0</ele><time>2026-05-05T15:42:49.999Z</time></trkpt><trkpt lat="43.7873347223378" lon="11.571746312712841"><ele>883.0</ele><time>2026-05-05T15:42:50.999Z</time></trkpt><trkpt lat="43.78737109128194" lon="11.571533847113749"><ele>883.0</ele><time>2026-05-05T15:42:51.999Z</time></trkpt><trkpt lat="43.78742074494158" lon="11.571323907315819"><ele>883.0</ele><time>2026-05-05T15:42:52.999Z</time></trkpt><trkpt lat="43.78748171788706" lon="11.571118562912307"><ele>883.0</ele><time>2026-05-05T15:42:53.999Z</time></trkpt><trkpt lat="43.7875447693166" lon="11.570918465780094"><ele>884.25</ele><time>2026-05-05T15:42:54.999Z</time></trkpt><trkpt lat="43.78761052399573" lon="11.570734336448835"><ele>885.5</ele><time>2026-05-05T15:42:55.999Z</time></trkpt><trkpt lat="43.78769506123862" lon="11.570565434346946"><ele>886.75</ele><time>2026-05-05T15:42:56.999Z</time></trkpt><trkpt lat="43.78780199769687" lon="11.570417036221158"><ele>888.0</ele><time>2026-05-05T15:42:57.999Z</time></trkpt><trkpt lat="43.787908987732216" lon="11.570287272225604"><ele>888.0</ele><time>2026-05-05T15:42:58.998Z</time></trkpt><trkpt lat="43.78799365654598" lon="11.570144109863273"><ele>888.0</ele><time>2026-05-05T15:42:59.998Z</time></trkpt><trkpt lat="43.78804814567928" lon="11.569981406862468"><ele>888.0</ele><time>2026-05-05T15:43:00.998Z</time></trkpt><trkpt lat="43.78807293647389" lon="11.569803492424493"><ele>888.0</ele><time>2026-05-05T15:43:01.998Z</time></trkpt><trkpt lat="43.78809604236394" lon="11.569604615928911"><ele>884.3333333333333</ele><time>2026-05-05T15:43:02.998Z</time></trkpt><trkpt lat="43.78812360477704" lon="11.569396067984632"><ele>880.6666666666666</ele><time>2026-05-05T15:43:03.998Z</time></trkpt><trkpt lat="43.78815167238144" lon="11.569184872475514"><ele>877.0</ele><time>2026-05-05T15:43:04.998Z</time></trkpt><trkpt lat="43.78818833058982" lon="11.56896485101787"><ele>877.0</ele><time>2026-05-05T15:43:05.998Z</time></trkpt><trkpt lat="43.78823378786725" lon="11.568744455551315"><ele>877.0</ele><time>2026-05-05T15:43:06.998Z</time></trkpt><trkpt lat="43.78823331192203" lon="11.568509646500118"><ele>877.0</ele><time>2026-05-05T15:43:07.998Z</time></trkpt><trkpt lat="43.78823314855712" lon="11.568288859403967"><ele>874.5</ele><time>2026-05-05T15:43:08.998Z</time></trkpt><trkpt lat="43.788231034892945" lon="11.5680909230908"><ele>872.0</ele><time>2026-05-05T15:43:09.998Z</time></trkpt><trkpt lat="43.78825338209057" lon="11.567905803708134"><ele>869.5</ele><time>2026-05-05T15:43:10.998Z</time></trkpt><trkpt lat="43.788324268682366" lon="11.567732025533866"><ele>867.0</ele><time>2026-05-05T15:43:11.998Z</time></trkpt><trkpt lat="43.78843391254066" lon="11.567583494847439"><ele>871.0</ele><time>2026-05-05T15:43:12.998Z</time></trkpt><trkpt lat="43.788549877443145" lon="11.567437868574675"><ele>875.0</ele><time>2026-05-05T15:43:13.998Z</time></trkpt><trkpt lat="43.78866643945271" lon="11.56727862206552"><ele>879.0</ele><time>2026-05-05T15:43:14.998Z</time></trkpt><trkpt lat="43.7887706365851" lon="11.56710386924682"><ele>873.0</ele><time>2026-05-05T15:43:15.998Z</time></trkpt><trkpt lat="43.78885669028389" lon="11.566901887912701"><ele>867.0</ele><time>2026-05-05T15:43:16.998Z</time></trkpt><trkpt lat="43.788922289735055" lon="11.566687945861583"><ele>861.0</ele><time>2026-05-05T15:43:17.998Z</time></trkpt><trkpt lat="43.78898761273044" lon="11.566474880581437"><ele>861.0</ele><time>2026-05-05T15:43:18.998Z</time></trkpt><trkpt lat="43.78906262986085" lon="11.566274753559311"><ele>861.0</ele><time>2026-05-05T15:43:19.998Z</time></trkpt><trkpt lat="43.78916511501686" lon="11.566097856993814"><ele>861.0</ele><time>2026-05-05T15:43:20.998Z</time></trkpt><trkpt lat="43.789287811433475" lon="11.565934400594617"><ele>862.0</ele><time>2026-05-05T15:43:21.998Z</time></trkpt><trkpt lat="43.7894203476257" lon="11.565774137987672"><ele>863.0</ele><time>2026-05-05T15:43:22.998Z</time></trkpt><trkpt lat="43.789562454608316" lon="11.56561630144196"><ele>864.0</ele><time>2026-05-05T15:43:23.998Z</time></trkpt><trkpt lat="43.78969663316744" lon="11.56546799564172"><ele>857.3333333333333</ele><time>2026-05-05T15:43:24.998Z</time></trkpt><trkpt lat="43.78980572891792" lon="11.56533168574637"><ele>850.6666666666666</ele><time>2026-05-05T15:43:25.998Z</time></trkpt><trkpt lat="43.78987901196508" lon="11.565155904390028"><ele>844.0</ele><time>2026-05-05T15:43:26.998Z</time></trkpt><trkpt lat="43.789916925659945" lon="11.564936428670313"><ele>844.0</ele><time>2026-05-05T15:43:27.998Z</time></trkpt><trkpt lat="43.7899576679987" lon="11.564701689237653"><ele>844.0</ele><time>2026-05-05T15:43:28.998Z</time></trkpt><trkpt lat="43.79000420065912" lon="11.564458609285687"><ele>844.0</ele><time>2026-05-05T15:43:29.998Z</time></trkpt><trkpt lat="43.79005453730662" lon="11.564205802992808"><ele>841.0</ele><time>2026-05-05T15:43:30.998Z</time></trkpt><trkpt lat="43.79010229599521" lon="11.5639586655181"><ele>838.0</ele><time>2026-05-05T15:43:31.998Z</time></trkpt><trkpt lat="43.79014468610771" lon="11.563715683459325"><ele>835.0</ele><time>2026-05-05T15:43:32.998Z</time></trkpt><trkpt lat="43.790173506367836" lon="11.563472011066947"><ele>833.6666666666666</ele><time>2026-05-05T15:43:33.998Z</time></trkpt><trkpt lat="43.79018197359985" lon="11.563223630876495"><ele>832.3333333333333</ele><time>2026-05-05T15:43:34.998Z</time></trkpt><trkpt lat="43.79017288639665" lon="11.562976128249431"><ele>831.0</ele><time>2026-05-05T15:43:35.998Z</time></trkpt><trkpt lat="43.79014869332025" lon="11.562732000022738"><ele>831.0</ele><time>2026-05-05T15:43:36.997Z</time></trkpt><trkpt lat="43.790120515824775" lon="11.562492922965646"><ele>831.0</ele><time>2026-05-05T15:43:37.997Z</time></trkpt><trkpt lat="43.79008592487893" lon="11.562266203803487"><ele>831.0</ele><time>2026-05-05T15:43:38.997Z</time></trkpt><trkpt lat="43.790050530524546" lon="11.562056147753191"><ele>832.0</ele><time>2026-05-05T15:43:39.997Z</time></trkpt><trkpt lat="43.7900285580823" lon="11.561846261603538"><ele>833.0</ele><time>2026-05-05T15:43:40.997Z</time></trkpt><trkpt lat="43.79002839115558" lon="11.561637973903663"><ele>834.0</ele><time>2026-05-05T15:43:41.997Z</time></trkpt><trkpt lat="43.79006700699792" lon="11.561430922074097"><ele>834.0</ele><time>2026-05-05T15:43:42.997Z</time></trkpt><trkpt lat="43.79010934091393" lon="11.561221203207394"><ele>834.0</ele><time>2026-05-05T15:43:43.997Z</time></trkpt><trkpt lat="43.790173903300015" lon="11.561011278678563"><ele>834.0</ele><time>2026-05-05T15:43:44.997Z</time></trkpt><trkpt lat="43.79024055307222" lon="11.560798167018527"><ele>835.3333333333333</ele><time>2026-05-05T15:43:45.997Z</time></trkpt><trkpt lat="43.79032211512357" lon="11.560601563237013"><ele>836.6666666666666</ele><time>2026-05-05T15:43:46.997Z</time></trkpt><trkpt lat="43.79039517870269" lon="11.560398764107527"><ele>838.0</ele><time>2026-05-05T15:43:47.997Z</time></trkpt><trkpt lat="43.790447287266225" lon="11.560179217466565"><ele>838.0</ele><time>2026-05-05T15:43:48.997Z</time></trkpt><trkpt lat="43.79048033031843" lon="11.559948107974998"><ele>838.0</ele><time>2026-05-05T15:43:49.997Z</time></trkpt><trkpt lat="43.79050956700388" lon="11.559720144123308"><ele>838.0</ele><time>2026-05-05T15:43:50.997Z</time></trkpt><trkpt lat="43.79053855900795" lon="11.559515595353176"><ele>836.75</ele><time>2026-05-05T15:43:51.997Z</time></trkpt><trkpt lat="43.790591957998494" lon="11.559356388262573"><ele>835.5</ele><time>2026-05-05T15:43:52.997Z</time></trkpt><trkpt lat="43.79062846343118" lon="11.559184276889376"><ele>834.25</ele><time>2026-05-05T15:43:54Z</time></trkpt><trkpt lat="43.79069385568588" lon="11.5590112725226"><ele>833.0</ele><time>2026-05-05T15:43:55Z</time></trkpt><trkpt lat="43.79079133839707" lon="11.558860912653687"><ele>830.0</ele><time>2026-05-05T15:43:56Z</time></trkpt><trkpt lat="43.790892367630505" lon="11.558685164049185"><ele>827.0</ele><time>2026-05-05T15:43:57Z</time></trkpt><trkpt lat="43.79102263019833" lon="11.558530421536208"><ele>824.0</ele><time>2026-05-05T15:43:58Z</time></trkpt><trkpt lat="43.791156997892806" lon="11.558397847416638"><ele>824.0</ele><time>2026-05-05T15:43:59Z</time></trkpt><trkpt lat="43.791300113579105" lon="11.558285789538358"><ele>824.0</ele><time>2026-05-05T15:44:00Z</time></trkpt><trkpt lat="43.79144150186697" lon="11.558179800689354"><ele>824.0</ele><time>2026-05-05T15:44:01Z</time></trkpt><trkpt lat="43.79156685673429" lon="11.558073618259153"><ele>824.0</ele><time>2026-05-05T15:44:02Z</time></trkpt><trkpt lat="43.79167309441696" lon="11.557961926718532"><ele>824.0</ele><time>2026-05-05T15:44:03Z</time></trkpt><trkpt lat="43.79175449053284" lon="11.557829622892662"><ele>824.0</ele><time>2026-05-05T15:44:04Z</time></trkpt><trkpt lat="43.79178355365544" lon="11.557675799581125"><ele>824.0</ele><time>2026-05-05T15:44:05Z</time></trkpt><trkpt lat="43.79175835882453" lon="11.557505511006916"><ele>826.25</ele><time>2026-05-05T15:44:06Z</time></trkpt><trkpt lat="43.79172699231562" lon="11.557339378651852"><ele>828.5</ele><time>2026-05-05T15:44:07Z</time></trkpt><trkpt lat="43.79173173393775" lon="11.557183607209664"><ele>830.75</ele><time>2026-05-05T15:44:08Z</time></trkpt><trkpt lat="43.79178518507953" lon="11.557057459406652"><ele>833.0</ele><time>2026-05-05T15:44:09Z</time></trkpt><trkpt lat="43.79188409537646" lon="11.55697100993181"><ele>825.5</ele><time>2026-05-05T15:44:10Z</time></trkpt><trkpt lat="43.79199965209342" lon="11.55690226197293"><ele>818.0</ele><time>2026-05-05T15:44:11Z</time></trkpt><trkpt lat="43.792107203415014" lon="11.556815672686994"><ele>810.5</ele><time>2026-05-05T15:44:12Z</time></trkpt><trkpt lat="43.79219587710656" lon="11.5567008870783"><ele>803.0</ele><time>2026-05-05T15:44:13Z</time></trkpt><trkpt lat="43.79223002935061" lon="11.556543809191552"><ele>803.0</ele><time>2026-05-05T15:44:14Z</time></trkpt><trkpt lat="43.79222300494648" lon="11.556371465772994"><ele>803.0</ele><time>2026-05-05T15:44:15Z</time></trkpt><trkpt lat="43.79216889561738" lon="11.556199545394424"><ele>803.0</ele><time>2026-05-05T15:44:16Z</time></trkpt><trkpt lat="43.79207143546779" lon="11.55605400514209"><ele>803.0</ele><time>2026-05-05T15:44:17Z</time></trkpt><trkpt lat="43.79195456806155" lon="11.555930024176215"><ele>802.25</ele><time>2026-05-05T15:44:18Z</time></trkpt><trkpt lat="43.791849194100266" lon="11.55579071036722"><ele>801.5</ele><time>2026-05-05T15:44:19Z</time></trkpt><trkpt lat="43.79176198987756" lon="11.555636797009578"><ele>800.75</ele><time>2026-05-05T15:44:20Z</time></trkpt><trkpt lat="43.7916996529315" lon="11.555465670150175"><ele>800.0</ele><time>2026-05-05T15:44:21Z</time></trkpt><trkpt lat="43.7916805462633" lon="11.555276561053859"><ele>801.0</ele><time>2026-05-05T15:44:22Z</time></trkpt><trkpt lat="43.79172086082821" lon="11.55508650331925"><ele>802.0</ele><time>2026-05-05T15:44:23Z</time></trkpt><trkpt lat="43.791811910112195" lon="11.554928475992844"><ele>803.0</ele><time>2026-05-05T15:44:24Z</time></trkpt><trkpt lat="43.79193268708469" lon="11.554803108559867"><ele>804.0</ele><time>2026-05-05T15:44:25Z</time></trkpt><trkpt lat="43.79206079227226" lon="11.554685097296371"><ele>804.0</ele><time>2026-05-05T15:44:26Z</time></trkpt><trkpt lat="43.792187035002826" lon="11.554552438210015"><ele>804.0</ele><time>2026-05-05T15:44:27Z</time></trkpt><trkpt lat="43.79230351663081" lon="11.55438782276966"><ele>804.0</ele><time>2026-05-05T15:44:27.999Z</time></trkpt><trkpt lat="43.792410422437385" lon="11.554196073629816"><ele>803.3333333333333</ele><time>2026-05-05T15:44:28.999Z</time></trkpt><trkpt lat="43.79251965014553" lon="11.553991637849574"><ele>802.6666666666666</ele><time>2026-05-05T15:44:29.999Z</time></trkpt><trkpt lat="43.79263264761445" lon="11.553782034986003"><ele>802.0</ele><time>2026-05-05T15:44:30.999Z</time></trkpt><trkpt lat="43.792748941789924" lon="11.553575908559836"><ele>802.0</ele><time>2026-05-05T15:44:31.999Z</time></trkpt><trkpt lat="43.79287742955355" lon="11.55338680229748"><ele>802.0</ele><time>2026-05-05T15:44:32.999Z</time></trkpt><trkpt lat="43.79300534428597" lon="11.55322767394249"><ele>802.0</ele><time>2026-05-05T15:44:33.999Z</time></trkpt><trkpt lat="43.793102997130404" lon="11.553082822326811"><ele>802.0</ele><time>2026-05-05T15:44:34.999Z</time></trkpt><trkpt lat="43.79316315588574" lon="11.552925531541224"><ele>802.0</ele><time>2026-05-05T15:44:35.999Z</time></trkpt><trkpt lat="43.79317446380187" lon="11.552733103066574"><ele>802.0</ele><time>2026-05-05T15:44:36.999Z</time></trkpt><trkpt lat="43.793149981601914" lon="11.552527518473479"><ele>802.0</ele><time>2026-05-05T15:44:37.999Z</time></trkpt><trkpt lat="43.79311504434401" lon="11.552305692665435"><ele>801.3333333333333</ele><time>2026-05-05T15:44:38.999Z</time></trkpt><trkpt lat="43.793087143873656" lon="11.552058189613808"><ele>800.6666666666667</ele><time>2026-05-05T15:44:39.999Z</time></trkpt><trkpt lat="43.79306020355214" lon="11.551793872216269"><ele>800.0</ele><time>2026-05-05T15:44:40.999Z</time></trkpt><trkpt lat="43.79303079763255" lon="11.55151817785238"><ele>797.0</ele><time>2026-05-05T15:44:41.999Z</time></trkpt><trkpt lat="43.793004283970106" lon="11.551245612975077"><ele>794.0</ele><time>2026-05-05T15:44:42.999Z</time></trkpt><trkpt lat="43.79297694297917" lon="11.550971969856112"><ele>791.0</ele><time>2026-05-05T15:44:43.999Z</time></trkpt><trkpt lat="43.792952349659835" lon="11.550697841745931"><ele>789.6666666666667</ele><time>2026-05-05T15:44:44.999Z</time></trkpt><trkpt lat="43.792942121373784" lon="11.550421022181867"><ele>788.3333333333333</ele><time>2026-05-05T15:44:45.999Z</time></trkpt><trkpt lat="43.79294631750426" lon="11.550142478050375"><ele>787.0</ele><time>2026-05-05T15:44:46.999Z</time></trkpt><trkpt lat="43.79296110858412" lon="11.549862025574303"><ele>784.6666666666666</ele><time>2026-05-05T15:44:47.999Z</time></trkpt><trkpt lat="43.79297803725154" lon="11.54957998498323"><ele>782.3333333333333</ele><time>2026-05-05T15:44:48.999Z</time></trkpt><trkpt lat="43.79299106747289" lon="11.549295480559433"><ele>780.0</ele><time>2026-05-05T15:44:49.999Z</time></trkpt><trkpt lat="43.792997683028055" lon="11.549011736797773"><ele>779.0</ele><time>2026-05-05T15:44:50.999Z</time></trkpt><trkpt lat="43.79300633559707" lon="11.548738652457175"><ele>778.0</ele><time>2026-05-05T15:44:51.999Z</time></trkpt><trkpt lat="43.79302147992312" lon="11.548487161044203"><ele>777.0</ele><time>2026-05-05T15:44:52.999Z</time></trkpt><trkpt lat="43.79304193992474" lon="11.54824648415145"><ele>777.0</ele><time>2026-05-05T15:44:53.999Z</time></trkpt><trkpt lat="43.793071443338306" lon="11.54802505321395"><ele>777.0</ele><time>2026-05-05T15:44:54.999Z</time></trkpt><trkpt lat="43.79312695942389" lon="11.54782395557319"><ele>777.0</ele><time>2026-05-05T15:44:55.999Z</time></trkpt><trkpt lat="43.79323715171581" lon="11.547668713078707"><ele>778.0</ele><time>2026-05-05T15:44:56.999Z</time></trkpt><trkpt lat="43.793368293320704" lon="11.547553644293128"><ele>779.0</ele><time>2026-05-05T15:44:57.999Z</time></trkpt><trkpt lat="43.79352302435982" lon="11.547483736021732"><ele>780.0</ele><time>2026-05-05T15:44:58.999Z</time></trkpt><trkpt lat="43.79369228368218" lon="11.547449268555123"><ele>780.0</ele><time>2026-05-05T15:44:59.999Z</time></trkpt><trkpt lat="43.79387190571192" lon="11.54742502170092"><ele>780.0</ele><time>2026-05-05T15:45:00.999Z</time></trkpt><trkpt lat="43.79404485122454" lon="11.54742911567028"><ele>780.0</ele><time>2026-05-05T15:45:01.999Z</time></trkpt><trkpt lat="43.794211815027346" lon="11.547427236378311"><ele>776.25</ele><time>2026-05-05T15:45:02.999Z</time></trkpt><trkpt lat="43.79436372194733" lon="11.547417315368603"><ele>772.5</ele><time>2026-05-05T15:45:03.999Z</time></trkpt><trkpt lat="43.79449772391711" lon="11.547382474452146"><ele>768.75</ele><time>2026-05-05T15:45:04.999Z</time></trkpt><trkpt lat="43.79461888744456" lon="11.54729832057199"><ele>765.0</ele><time>2026-05-05T15:45:05.998Z</time></trkpt><trkpt lat="43.79470585125925" lon="11.547157691102404"><ele>765.75</ele><time>2026-05-05T15:45:06.998Z</time></trkpt><trkpt lat="43.79475281063575" lon="11.546974740492232"><ele>766.5</ele><time>2026-05-05T15:45:07.998Z</time></trkpt><trkpt lat="43.794742685033626" lon="11.546769772770778"><ele>767.25</ele><time>2026-05-05T15:45:08.998Z</time></trkpt><trkpt lat="43.79470659622298" lon="11.546559194584098"><ele>768.0</ele><time>2026-05-05T15:45:09.998Z</time></trkpt><trkpt lat="43.7946986896227" lon="11.546335611153296"><ele>767.3333333333334</ele><time>2026-05-05T15:45:10.998Z</time></trkpt><trkpt lat="43.79471279118507" lon="11.546102489589487"><ele>766.6666666666667</ele><time>2026-05-05T15:45:11.998Z</time></trkpt><trkpt lat="43.79475143799257" lon="11.545874899494706"><ele>766.0</ele><time>2026-05-05T15:45:12.998Z</time></trkpt><trkpt lat="43.794799950957895" lon="11.545652048986975"><ele>766.0</ele><time>2026-05-05T15:45:13.998Z</time></trkpt><trkpt lat="43.79485958991159" lon="11.545423940905978"><ele>766.0</ele><time>2026-05-05T15:45:14.998Z</time></trkpt><trkpt lat="43.79493051688755" lon="11.54519622520972"><ele>766.0</ele><time>2026-05-05T15:45:15.998Z</time></trkpt><trkpt lat="43.7950079419935" lon="11.544969110287443"><ele>767.3333333333334</ele><time>2026-05-05T15:45:16.998Z</time></trkpt><trkpt lat="43.795071344763464" lon="11.544735305903046"><ele>768.6666666666667</ele><time>2026-05-05T15:45:17.998Z</time></trkpt><trkpt lat="43.79510985587883" lon="11.544480714135714"><ele>770.0</ele><time>2026-05-05T15:45:18.998Z</time></trkpt><trkpt lat="43.79514409333518" lon="11.544215873739084"><ele>761.0</ele><time>2026-05-05T15:45:19.998Z</time></trkpt><trkpt lat="43.79518622286025" lon="11.5439563109259"><ele>752.0</ele><time>2026-05-05T15:45:20.998Z</time></trkpt><trkpt lat="43.79522750941949" lon="11.543695833535685"><ele>743.0</ele><time>2026-05-05T15:45:21.998Z</time></trkpt><trkpt lat="43.79527103628447" lon="11.543435739409563"><ele>743.0</ele><time>2026-05-05T15:45:22.998Z</time></trkpt><trkpt lat="43.79531448412572" lon="11.543177021426748"><ele>743.0</ele><time>2026-05-05T15:45:23.998Z</time></trkpt><trkpt lat="43.79535788426427" lon="11.542940175025553"><ele>743.0</ele><time>2026-05-05T15:45:24.998Z</time></trkpt><trkpt lat="43.79539517068971" lon="11.542714598751106"><ele>744.0</ele><time>2026-05-05T15:45:25.998Z</time></trkpt><trkpt lat="43.79541115827264" lon="11.542477337039998"><ele>745.0</ele><time>2026-05-05T15:45:26.998Z</time></trkpt><trkpt lat="43.79539330291038" lon="11.542236781756593"><ele>746.0</ele><time>2026-05-05T15:45:27.998Z</time></trkpt><trkpt lat="43.79535972467728" lon="11.541995346949172"><ele>746.0</ele><time>2026-05-05T15:45:28.998Z</time></trkpt><trkpt lat="43.79532612987698" lon="11.541762320253742"><ele>746.0</ele><time>2026-05-05T15:45:29.998Z</time></trkpt><trkpt lat="43.79530003127814" lon="11.54154356596468"><ele>746.0</ele><time>2026-05-05T15:45:30.998Z</time></trkpt><trkpt lat="43.79527793746872" lon="11.541337805623712"><ele>744.5</ele><time>2026-05-05T15:45:31.998Z</time></trkpt><trkpt lat="43.79526672798337" lon="11.541152678149855"><ele>743.0</ele><time>2026-05-05T15:45:32.998Z</time></trkpt><trkpt lat="43.79526510142981" lon="11.540987996599043"><ele>741.5</ele><time>2026-05-05T15:45:33.998Z</time></trkpt><trkpt lat="43.795276085174535" lon="11.540843891889903"><ele>740.0</ele><time>2026-05-05T15:45:34.998Z</time></trkpt><trkpt lat="43.79528981543467" lon="11.540703538032329"><ele>740.0</ele><time>2026-05-05T15:45:35.998Z</time></trkpt><trkpt lat="43.795307000489935" lon="11.540554419144694"><ele>740.0</ele><time>2026-05-05T15:45:36.998Z</time></trkpt><trkpt lat="43.79532268793068" lon="11.540401335400386"><ele>740.0</ele><time>2026-05-05T15:45:37.998Z</time></trkpt><trkpt lat="43.79533753156878" lon="11.540243472376856"><ele>740.0</ele><time>2026-05-05T15:45:38.998Z</time></trkpt><trkpt lat="43.79535480812672" lon="11.540087515833061"><ele>740.0</ele><time>2026-05-05T15:45:39.998Z</time></trkpt><trkpt lat="43.79536052446227" lon="11.539932100519485"><ele>739.6</ele><time>2026-05-05T15:45:40.998Z</time></trkpt><trkpt lat="43.795344436786955" lon="11.539775247826885"><ele>739.2</ele><time>2026-05-05T15:45:41.998Z</time></trkpt><trkpt lat="43.79531456703365" lon="11.539630400200418"><ele>738.8</ele><time>2026-05-05T15:45:42.997Z</time></trkpt><trkpt lat="43.79526276032371" lon="11.53950283500552"><ele>738.4</ele><time>2026-05-05T15:45:43.997Z</time></trkpt><trkpt lat="43.79518983741898" lon="11.53939048030683"><ele>738.0</ele><time>2026-05-05T15:45:44.997Z</time></trkpt><trkpt lat="43.795096783392275" lon="11.539288470152286"><ele>738.0</ele><time>2026-05-05T15:45:45.997Z</time></trkpt><trkpt lat="43.79498958034746" lon="11.539193319363632"><ele>738.0</ele><time>2026-05-05T15:45:46.997Z</time></trkpt><trkpt lat="43.79487768993664" lon="11.539110559205852"><ele>738.0</ele><time>2026-05-05T15:45:47.997Z</time></trkpt><trkpt lat="43.79475876466396" lon="11.539026799220187"><ele>738.0</ele><time>2026-05-05T15:45:48.997Z</time></trkpt><trkpt lat="43.794640917850685" lon="11.53893364598622"><ele>738.0</ele><time>2026-05-05T15:45:49.997Z</time></trkpt><trkpt lat="43.79453058664164" lon="11.53883057533551"><ele>738.0</ele><time>2026-05-05T15:45:50.997Z</time></trkpt><trkpt lat="43.794447132828566" lon="11.538695427338295"><ele>738.0</ele><time>2026-05-05T15:45:51.997Z</time></trkpt><trkpt lat="43.79441022416209" lon="11.53852594975709"><ele>738.0</ele><time>2026-05-05T15:45:52.997Z</time></trkpt><trkpt lat="43.79442892068275" lon="11.5383428558824"><ele>738.75</ele><time>2026-05-05T15:45:53.997Z</time></trkpt><trkpt lat="43.79446356485423" lon="11.53816037397273"><ele>739.5</ele><time>2026-05-05T15:45:54.997Z</time></trkpt><trkpt lat="43.79447646042493" lon="11.537980739300536"><ele>740.25</ele><time>2026-05-05T15:45:55.997Z</time></trkpt><trkpt lat="43.79443896355096" lon="11.537811102269961"><ele>741.0</ele><time>2026-05-05T15:45:56.997Z</time></trkpt><trkpt lat="43.79435592134567" lon="11.537656907094"><ele>739.0</ele><time>2026-05-05T15:45:57.997Z</time></trkpt><trkpt lat="43.79424273154308" lon="11.537527912676206"><ele>737.0</ele><time>2026-05-05T15:45:59Z</time></trkpt><trkpt lat="43.79413311620361" lon="11.537377122329154"><ele>735.0</ele><time>2026-05-05T15:46:00Z</time></trkpt><trkpt lat="43.79401731775879" lon="11.53722083654495"><ele>739.6666666666666</ele><time>2026-05-05T15:46:01Z</time></trkpt><trkpt lat="43.79390779468225" lon="11.537049816638662"><ele>744.3333333333333</ele><time>2026-05-05T15:46:02Z</time></trkpt><trkpt lat="43.793817741819936" lon="11.53684812989249"><ele>749.0</ele><time>2026-05-05T15:46:03Z</time></trkpt><trkpt lat="43.793740525956004" lon="11.536628452599835"><ele>749.0</ele><time>2026-05-05T15:46:04Z</time></trkpt><trkpt lat="43.79366013447723" lon="11.536404838314011"><ele>749.0</ele><time>2026-05-05T15:46:05Z</time></trkpt><trkpt lat="43.793578059908214" lon="11.536176308875376"><ele>749.0</ele><time>2026-05-05T15:46:06Z</time></trkpt><trkpt lat="43.793496508951904" lon="11.535942684913174"><ele>745.0</ele><time>2026-05-05T15:46:07Z</time></trkpt><trkpt lat="43.793416780225265" lon="11.535705477683752"><ele>741.0</ele><time>2026-05-05T15:46:08Z</time></trkpt><trkpt lat="43.79333960082848" lon="11.53547050958636"><ele>737.0</ele><time>2026-05-05T15:46:09Z</time></trkpt><trkpt lat="43.79326853970854" lon="11.535238565358753"><ele>737.0</ele><time>2026-05-05T15:46:10Z</time></trkpt><trkpt lat="43.793208287692266" lon="11.535004385300052"><ele>737.0</ele><time>2026-05-05T15:46:11Z</time></trkpt><trkpt lat="43.793152886267116" lon="11.534771689250706"><ele>737.0</ele><time>2026-05-05T15:46:12Z</time></trkpt><trkpt lat="43.793098985218734" lon="11.53454155343957"><ele>739.6666666666666</ele><time>2026-05-05T15:46:13Z</time></trkpt><trkpt lat="43.793045808725154" lon="11.534314953740717"><ele>742.3333333333334</ele><time>2026-05-05T15:46:14Z</time></trkpt><trkpt lat="43.793010834836565" lon="11.534085797348547"><ele>745.0</ele><time>2026-05-05T15:46:15Z</time></trkpt><trkpt lat="43.79300129109255" lon="11.533852693766745"><ele>746.0</ele><time>2026-05-05T15:46:16Z</time></trkpt><trkpt lat="43.79301088366709" lon="11.533620247035314"><ele>747.0</ele><time>2026-05-05T15:46:17Z</time></trkpt><trkpt lat="43.7929980944551" lon="11.53339122349834"><ele>748.0</ele><time>2026-05-05T15:46:18Z</time></trkpt><trkpt lat="43.79297181077925" lon="11.533165911752922"><ele>748.0</ele><time>2026-05-05T15:46:19Z</time></trkpt><trkpt lat="43.79295791592097" lon="11.532943897696645"><ele>748.0</ele><time>2026-05-05T15:46:20Z</time></trkpt><trkpt lat="43.79296736060297" lon="11.532723217122983"><ele>748.0</ele><time>2026-05-05T15:46:21Z</time></trkpt><trkpt lat="43.792990445518875" lon="11.532499137806596"><ele>747.6666666666667</ele><time>2026-05-05T15:46:22Z</time></trkpt><trkpt lat="43.79301300061446" lon="11.532268416471554"><ele>747.3333333333334</ele><time>2026-05-05T15:46:23Z</time></trkpt><trkpt lat="43.79303194684242" lon="11.53203800915638"><ele>747.0</ele><time>2026-05-05T15:46:24Z</time></trkpt><trkpt lat="43.793047132150335" lon="11.531813274422785"><ele>745.75</ele><time>2026-05-05T15:46:25Z</time></trkpt><trkpt lat="43.793047191108585" lon="11.531605178799843"><ele>744.5</ele><time>2026-05-05T15:46:26Z</time></trkpt><trkpt lat="43.79304788967102" lon="11.531401374444506"><ele>743.25</ele><time>2026-05-05T15:46:27Z</time></trkpt><trkpt lat="43.79306963909218" lon="11.531194739477954"><ele>742.0</ele><time>2026-05-05T15:46:28Z</time></trkpt><trkpt lat="43.793104444788185" lon="11.53099779924194"><ele>741.25</ele><time>2026-05-05T15:46:29Z</time></trkpt><trkpt lat="43.79312543001101" lon="11.53082614164829"><ele>740.5</ele><time>2026-05-05T15:46:30Z</time></trkpt><trkpt lat="43.79310358745818" lon="11.530673734368522"><ele>739.75</ele><time>2026-05-05T15:46:31Z</time></trkpt><trkpt lat="43.79302280701537" lon="11.530533677417955"><ele>739.0</ele><time>2026-05-05T15:46:31.999Z</time></trkpt><trkpt lat="43.79289708529773" lon="11.530432029097598"><ele>743.6666666666667</ele><time>2026-05-05T15:46:32.999Z</time></trkpt><trkpt lat="43.792757780038265" lon="11.53034404295074"><ele>748.3333333333334</ele><time>2026-05-05T15:46:33.999Z</time></trkpt><trkpt lat="43.79262739197073" lon="11.53025284828179"><ele>753.0</ele><time>2026-05-05T15:46:34.999Z</time></trkpt><trkpt lat="43.79249435490284" lon="11.53015235469055"><ele>744.75</ele><time>2026-05-05T15:46:35.999Z</time></trkpt><trkpt lat="43.79236333819931" lon="11.530041453388174"><ele>736.5</ele><time>2026-05-05T15:46:36.999Z</time></trkpt><trkpt lat="43.79224393648334" lon="11.529914353709202"><ele>728.25</ele><time>2026-05-05T15:46:37.999Z</time></trkpt><trkpt lat="43.79214427496034" lon="11.529768881658445"><ele>720.0</ele><time>2026-05-05T15:46:38.999Z</time></trkpt><trkpt lat="43.79207925177405" lon="11.529582411613381"><ele>722.6666666666666</ele><time>2026-05-05T15:46:39.999Z</time></trkpt><trkpt lat="43.79204207564857" lon="11.52937789859891"><ele>725.3333333333333</ele><time>2026-05-05T15:46:40.999Z</time></trkpt><trkpt lat="43.792038076950504" lon="11.529161088299125"><ele>728.0</ele><time>2026-05-05T15:46:41.999Z</time></trkpt><trkpt lat="43.792032284897005" lon="11.528943328821354"><ele>728.0</ele><time>2026-05-05T15:46:42.999Z</time></trkpt><trkpt lat="43.79198459736092" lon="11.528730656097018"><ele>728.0</ele><time>2026-05-05T15:46:43.999Z</time></trkpt><trkpt lat="43.79191009267365" lon="11.52853280083858"><ele>728.0</ele><time>2026-05-05T15:46:44.999Z</time></trkpt><trkpt lat="43.79182643091856" lon="11.528338378543888"><ele>720.25</ele><time>2026-05-05T15:46:45.999Z</time></trkpt><trkpt lat="43.79174881427928" lon="11.52814678967899"><ele>712.5</ele><time>2026-05-05T15:46:46.999Z</time></trkpt><trkpt lat="43.79168305617192" lon="11.527971629511294"><ele>704.75</ele><time>2026-05-05T15:46:47.999Z</time></trkpt><trkpt lat="43.79164603928486" lon="11.527797617743918"><ele>697.0</ele><time>2026-05-05T15:46:48.999Z</time></trkpt><trkpt lat="43.79165581677822" lon="11.527614027071015"><ele>696.5</ele><time>2026-05-05T15:46:49.999Z</time></trkpt><trkpt lat="43.79172953995544" lon="11.527453931466434"><ele>696.0</ele><time>2026-05-05T15:46:50.999Z</time></trkpt><trkpt lat="43.79179870228809" lon="11.527277205575684"><ele>695.5</ele><time>2026-05-05T15:46:51.999Z</time></trkpt><trkpt lat="43.79185364779539" lon="11.527099999691808"><ele>695.0</ele><time>2026-05-05T15:46:52.999Z</time></trkpt><trkpt lat="43.79185232737277" lon="11.526902379016633"><ele>696.75</ele><time>2026-05-05T15:46:53.999Z</time></trkpt><trkpt lat="43.79183568179004" lon="11.526697151724585"><ele>698.5</ele><time>2026-05-05T15:46:54.999Z</time></trkpt><trkpt lat="43.79180811531349" lon="11.526506505632435"><ele>700.25</ele><time>2026-05-05T15:46:55.999Z</time></trkpt><trkpt lat="43.79184036154836" lon="11.526321050283912"><ele>702.0</ele><time>2026-05-05T15:46:56.999Z</time></trkpt><trkpt lat="43.79188948427278" lon="11.526116986330836"><ele>702.0</ele><time>2026-05-05T15:46:57.999Z</time></trkpt><trkpt lat="43.791963549762855" lon="11.525913494180728"><ele>702.0</ele><time>2026-05-05T15:46:58.999Z</time></trkpt><trkpt lat="43.792029614132915" lon="11.52571145160245"><ele>702.0</ele><time>2026-05-05T15:46:59.999Z</time></trkpt><trkpt lat="43.79208632510397" lon="11.525516243601976"><ele>698.75</ele><time>2026-05-05T15:47:00.999Z</time></trkpt><trkpt lat="43.792108948872496" lon="11.525326707347359"><ele>695.5</ele><time>2026-05-05T15:47:01.999Z</time></trkpt><trkpt lat="43.79208225197808" lon="11.525132659698638"><ele>692.25</ele><time>2026-05-05T15:47:02.999Z</time></trkpt><trkpt lat="43.79201511550034" lon="11.52494949418245"><ele>689.0</ele><time>2026-05-05T15:47:03.999Z</time></trkpt><trkpt lat="43.79196409534002" lon="11.524776086714027"><ele>689.0</ele><time>2026-05-05T15:47:04.999Z</time></trkpt><trkpt lat="43.79194238542439" lon="11.524615562111876"><ele>689.0</ele><time>2026-05-05T15:47:05.999Z</time></trkpt><trkpt lat="43.791968304013444" lon="11.524472490056949"><ele>689.0</ele><time>2026-05-05T15:47:06.999Z</time></trkpt><trkpt lat="43.79207122231564" lon="11.524402752371547"><ele>689.0</ele><time>2026-05-05T15:47:07.999Z</time></trkpt><trkpt lat="43.792175883942846" lon="11.524316294134268"><ele>686.0</ele><time>2026-05-05T15:47:08.999Z</time></trkpt><trkpt lat="43.7922859276428" lon="11.524211684826708"><ele>683.0</ele><time>2026-05-05T15:47:09.998Z</time></trkpt><trkpt lat="43.79236605266252" lon="11.524049271223792"><ele>680.0</ele><time>2026-05-05T15:47:10.998Z</time></trkpt><trkpt lat="43.792429369538574" lon="11.523859989884377"><ele>677.0</ele><time>2026-05-05T15:47:11.998Z</time></trkpt><trkpt lat="43.79249607292801" lon="11.523656521545531"><ele>678.3333333333333</ele><time>2026-05-05T15:47:12.998Z</time></trkpt><trkpt lat="43.792586049410446" lon="11.523453912296143"><ele>679.6666666666666</ele><time>2026-05-05T15:47:13.998Z</time></trkpt><trkpt lat="43.79264965237965" lon="11.523234779550153"><ele>681.0</ele><time>2026-05-05T15:47:14.998Z</time></trkpt><trkpt lat="43.79272763579726" lon="11.52304045485864"><ele>678.3333333333334</ele><time>2026-05-05T15:47:15.998Z</time></trkpt><trkpt lat="43.7927840946283" lon="11.522845433103065"><ele>675.6666666666667</ele><time>2026-05-05T15:47:16.998Z</time></trkpt><trkpt lat="43.79280315060882" lon="11.522636838995016"><ele>673.0</ele><time>2026-05-05T15:47:17.998Z</time></trkpt><trkpt lat="43.792767713922764" lon="11.522414594394432"><ele>673.0</ele><time>2026-05-05T15:47:18.998Z</time></trkpt><trkpt lat="43.792714257879275" lon="11.522187584945376"><ele>673.0</ele><time>2026-05-05T15:47:19.998Z</time></trkpt><trkpt lat="43.792698895869115" lon="11.521943286425103"><ele>673.0</ele><time>2026-05-05T15:47:20.998Z</time></trkpt><trkpt lat="43.792692430057535" lon="11.521695968470537"><ele>664.6666666666667</ele><time>2026-05-05T15:47:21.998Z</time></trkpt><trkpt lat="43.792670593335245" lon="11.52144178658397"><ele>656.3333333333334</ele><time>2026-05-05T15:47:22.998Z</time></trkpt><trkpt lat="43.7926608008653" lon="11.521184506982403"><ele>648.0</ele><time>2026-05-05T15:47:23.998Z</time></trkpt><trkpt lat="43.792636792229814" lon="11.520930912559827"><ele>645.0</ele><time>2026-05-05T15:47:24.998Z</time></trkpt><trkpt lat="43.792605907041136" lon="11.52069924127434"><ele>642.0</ele><time>2026-05-05T15:47:25.998Z</time></trkpt><trkpt lat="43.79260344174664" lon="11.520482122751762"><ele>639.0</ele><time>2026-05-05T15:47:26.998Z</time></trkpt><trkpt lat="43.792618105805566" lon="11.520291609806797"><ele>641.75</ele><time>2026-05-05T15:47:27.998Z</time></trkpt><trkpt lat="43.79267507648954" lon="11.520131433241874"><ele>644.5</ele><time>2026-05-05T15:47:28.998Z</time></trkpt><trkpt lat="43.79274954605787" lon="11.519957311552043"><ele>647.25</ele><time>2026-05-05T15:47:29.998Z</time></trkpt><trkpt lat="43.79283910841113" lon="11.519784915344317"><ele>650.0</ele><time>2026-05-05T15:47:30.998Z</time></trkpt><trkpt lat="43.79294842941404" lon="11.51963098558693"><ele>643.3333333333333</ele><time>2026-05-05T15:47:31.998Z</time></trkpt><trkpt lat="43.79307499231263" lon="11.519497581753688"><ele>636.6666666666666</ele><time>2026-05-05T15:47:32.998Z</time></trkpt><trkpt lat="43.7931929913734" lon="11.519353030604988"><ele>630.0</ele><time>2026-05-05T15:47:33.998Z</time></trkpt><trkpt lat="43.79332056618736" lon="11.519221693537867"><ele>630.0</ele><time>2026-05-05T15:47:34.998Z</time></trkpt><trkpt lat="43.79342344064267" lon="11.519056698875211"><ele>630.0</ele><time>2026-05-05T15:47:35.998Z</time></trkpt><trkpt lat="43.79349359932549" lon="11.518882473632194"><ele>630.0</ele><time>2026-05-05T15:47:36.998Z</time></trkpt><trkpt lat="43.79351494205178" lon="11.51870114115581"><ele>630.0</ele><time>2026-05-05T15:47:37.998Z</time></trkpt><trkpt lat="43.7934933090695" lon="11.518546480179428"><ele>628.5</ele><time>2026-05-05T15:47:38.998Z</time></trkpt><trkpt lat="43.793425523897405" lon="11.51843123037408"><ele>627.0</ele><time>2026-05-05T15:47:39.998Z</time></trkpt><trkpt lat="43.793340540571144" lon="11.51830467580256"><ele>625.5</ele><time>2026-05-05T15:47:40.998Z</time></trkpt><trkpt lat="43.79325303931026" lon="11.518161611243395"><ele>624.0</ele><time>2026-05-05T15:47:41.998Z</time></trkpt><trkpt lat="43.79315203724119" lon="11.518009248727308"><ele>627.6666666666666</ele><time>2026-05-05T15:47:42.998Z</time></trkpt><trkpt lat="43.793039613183026" lon="11.517841901368085"><ele>631.3333333333333</ele><time>2026-05-05T15:47:43.998Z</time></trkpt><trkpt lat="43.79291540872485" lon="11.51766034627414"><ele>635.0</ele><time>2026-05-05T15:47:44.998Z</time></trkpt><trkpt lat="43.792792482364334" lon="11.517477248647157"><ele>629.6666666666666</ele><time>2026-05-05T15:47:45.998Z</time></trkpt><trkpt lat="43.79266975119242" lon="11.51729057618507"><ele>624.3333333333334</ele><time>2026-05-05T15:47:46.998Z</time></trkpt><trkpt lat="43.7925375369004" lon="11.517112940821308"><ele>619.0</ele><time>2026-05-05T15:47:47.997Z</time></trkpt><trkpt lat="43.792383124579416" lon="11.516965638244978"><ele>619.0</ele><time>2026-05-05T15:47:48.997Z</time></trkpt><trkpt lat="43.79221930102022" lon="11.516835227117042"><ele>619.0</ele><time>2026-05-05T15:47:49.997Z</time></trkpt><trkpt lat="43.79205443352006" lon="11.516699030210273"><ele>619.0</ele><time>2026-05-05T15:47:50.997Z</time></trkpt><trkpt lat="43.79189995433007" lon="11.516537839517113"><ele>613.6666666666667</ele><time>2026-05-05T15:47:51.997Z</time></trkpt><trkpt lat="43.79175629364729" lon="11.516353987165372"><ele>608.3333333333334</ele><time>2026-05-05T15:47:52.997Z</time></trkpt><trkpt lat="43.79162196463823" lon="11.516167624178129"><ele>603.0</ele><time>2026-05-05T15:47:53.997Z</time></trkpt><trkpt lat="43.79149480768855" lon="11.515996674248138"><ele>603.0</ele><time>2026-05-05T15:47:54.997Z</time></trkpt><trkpt lat="43.79137203782171" lon="11.515829318546674"><ele>603.0</ele><time>2026-05-05T15:47:55.997Z</time></trkpt><trkpt lat="43.791262956294034" lon="11.515675083943972"><ele>603.0</ele><time>2026-05-05T15:47:56.997Z</time></trkpt><trkpt lat="43.79118722159726" lon="11.515528491558927"><ele>601.5</ele><time>2026-05-05T15:47:57.997Z</time></trkpt><trkpt lat="43.79116674808645" lon="11.515368492207942"><ele>600.0</ele><time>2026-05-05T15:47:58.997Z</time></trkpt><trkpt lat="43.79119886940349" lon="11.515210225133988"><ele>598.5</ele><time>2026-05-05T15:47:59.997Z</time></trkpt><trkpt lat="43.79128129911247" lon="11.515068078214389"><ele>597.0</ele><time>2026-05-05T15:48:00.997Z</time></trkpt><trkpt lat="43.791398683241525" lon="11.514952019692283"><ele>597.0</ele><time>2026-05-05T15:48:01.997Z</time></trkpt><trkpt lat="43.79151834963954" lon="11.514810987282106"><ele>597.0</ele><time>2026-05-05T15:48:02.997Z</time></trkpt><trkpt lat="43.791653958792104" lon="11.514668734871973"><ele>597.0</ele><time>2026-05-05T15:48:03.997Z</time></trkpt><trkpt lat="43.79180973580084" lon="11.514543628236245"><ele>593.3333333333334</ele><time>2026-05-05T15:48:05Z</time></trkpt><trkpt lat="43.791972446320564" lon="11.514440717471519"><ele>589.6666666666667</ele><time>2026-05-05T15:48:06Z</time></trkpt><trkpt lat="43.79212369122903" lon="11.51433076210112"><ele>586.0</ele><time>2026-05-05T15:48:07Z</time></trkpt><trkpt lat="43.792255552332364" lon="11.514254777832667"><ele>586.0</ele><time>2026-05-05T15:48:08Z</time></trkpt><trkpt lat="43.79236695762781" lon="11.514177353611492"><ele>586.0</ele><time>2026-05-05T15:48:09Z</time></trkpt><trkpt lat="43.792456628862816" lon="11.514059247163685"><ele>586.0</ele><time>2026-05-05T15:48:10Z</time></trkpt><trkpt lat="43.79251432904843" lon="11.513895958811963"><ele>586.0</ele><time>2026-05-05T15:48:11Z</time></trkpt><trkpt lat="43.79253396049052" lon="11.513711953086176"><ele>582.75</ele><time>2026-05-05T15:48:12Z</time></trkpt><trkpt lat="43.792503202191845" lon="11.513517959794349"><ele>579.5</ele><time>2026-05-05T15:48:13Z</time></trkpt><trkpt lat="43.79242202604972" lon="11.513347244493376"><ele>576.25</ele><time>2026-05-05T15:48:14Z</time></trkpt><trkpt lat="43.79229880492826" lon="11.513226294900507"><ele>573.0</ele><time>2026-05-05T15:48:15Z</time></trkpt><trkpt lat="43.79215168276254" lon="11.513166552560815"><ele>573.0</ele><time>2026-05-05T15:48:16Z</time></trkpt><trkpt lat="43.791991631748964" lon="11.513133739572538"><ele>573.0</ele><time>2026-05-05T15:48:17Z</time></trkpt><trkpt lat="43.79182983202555" lon="11.513089284594873"><ele>573.0</ele><time>2026-05-05T15:48:18Z</time></trkpt><trkpt lat="43.791662578118164" lon="11.513042085696819"><ele>570.6666666666666</ele><time>2026-05-05T15:48:19Z</time></trkpt><trkpt lat="43.79149316245564" lon="11.512987918582962"><ele>568.3333333333333</ele><time>2026-05-05T15:48:20Z</time></trkpt><trkpt lat="43.79133106938061" lon="11.51293727376786"><ele>566.0</ele><time>2026-05-05T15:48:21Z</time></trkpt><trkpt lat="43.79117901456354" lon="11.512891856936616"><ele>564.3333333333333</ele><time>2026-05-05T15:48:22Z</time></trkpt><trkpt lat="43.79102412438671" lon="11.512862476761946"><ele>562.6666666666666</ele><time>2026-05-05T15:48:23Z</time></trkpt><trkpt lat="43.79086280986009" lon="11.512903048512827"><ele>561.0</ele><time>2026-05-05T15:48:24Z</time></trkpt><trkpt lat="43.790704012024186" lon="11.51296122746625"><ele>559.3333333333334</ele><time>2026-05-05T15:48:25Z</time></trkpt><trkpt lat="43.79053660103613" lon="11.513015083984088"><ele>557.6666666666667</ele><time>2026-05-05T15:48:26Z</time></trkpt><trkpt lat="43.790362866491236" lon="11.513067098527433"><ele>556.0</ele><time>2026-05-05T15:48:27Z</time></trkpt><trkpt lat="43.790186751343434" lon="11.51311831916467"><ele>552.0</ele><time>2026-05-05T15:48:28Z</time></trkpt><trkpt lat="43.790008402603576" lon="11.513168076295642"><ele>548.0</ele><time>2026-05-05T15:48:29Z</time></trkpt><trkpt lat="43.78983125164776" lon="11.513218381508905"><ele>544.0</ele><time>2026-05-05T15:48:30Z</time></trkpt><trkpt lat="43.78965960449285" lon="11.513261800575396"><ele>544.0</ele><time>2026-05-05T15:48:31Z</time></trkpt><trkpt lat="43.78948277236283" lon="11.513278070902379"><ele>544.0</ele><time>2026-05-05T15:48:32Z</time></trkpt><trkpt lat="43.789302227488555" lon="11.513274727397796"><ele>544.0</ele><time>2026-05-05T15:48:33Z</time></trkpt><trkpt lat="43.78913032088118" lon="11.513260198261811"><ele>541.3333333333334</ele><time>2026-05-05T15:48:34Z</time></trkpt><trkpt lat="43.7889726586683" lon="11.513209785108996"><ele>538.6666666666666</ele><time>2026-05-05T15:48:35Z</time></trkpt><trkpt lat="43.78882508726796" lon="11.513117841863858"><ele>536.0</ele><time>2026-05-05T15:48:36Z</time></trkpt><trkpt lat="43.78869232302127" lon="11.512978166141375"><ele>534.6666666666666</ele><time>2026-05-05T15:48:37Z</time></trkpt><trkpt lat="43.78856915446473" lon="11.512811320327534"><ele>533.3333333333334</ele><time>2026-05-05T15:48:37.999Z</time></trkpt><trkpt lat="43.78843822851463" lon="11.512639570548023"><ele>532.0</ele><time>2026-05-05T15:48:38.999Z</time></trkpt><trkpt lat="43.788304860789495" lon="11.512464222671094"><ele>531.0</ele><time>2026-05-05T15:48:39.999Z</time></trkpt><trkpt lat="43.78817000521868" lon="11.512287636385837"><ele>530.0</ele><time>2026-05-05T15:48:40.999Z</time></trkpt><trkpt lat="43.78803543260233" lon="11.512113675811554"><ele>529.0</ele><time>2026-05-05T15:48:41.999Z</time></trkpt><trkpt lat="43.78790283621426" lon="11.511943752362557"><ele>527.6666666666667</ele><time>2026-05-05T15:48:42.999Z</time></trkpt><trkpt lat="43.78777082972977" lon="11.511775836603299"><ele>526.3333333333334</ele><time>2026-05-05T15:48:43.999Z</time></trkpt><trkpt lat="43.787641431671496" lon="11.511607867648125"><ele>525.0</ele><time>2026-05-05T15:48:44.999Z</time></trkpt><trkpt lat="43.78751352881516" lon="11.511441308615305"><ele>525.0</ele><time>2026-05-05T15:48:45.999Z</time></trkpt><trkpt lat="43.78739290337223" lon="11.511285186466537"><ele>525.0</ele><time>2026-05-05T15:48:46.999Z</time></trkpt><trkpt lat="43.78729111181387" lon="11.511153019897574"><ele>525.0</ele><time>2026-05-05T15:48:47.999Z</time></trkpt><trkpt lat="43.787199362552855" lon="11.511037012007911"><ele>525.0</ele><time>2026-05-05T15:48:48.999Z</time></trkpt><trkpt lat="43.787117251773836" lon="11.510932168302805"><ele>525.25</ele><time>2026-05-05T15:48:49.999Z</time></trkpt><trkpt lat="43.78703169901958" lon="11.51082931274661"><ele>525.5</ele><time>2026-05-05T15:48:50.999Z</time></trkpt><trkpt lat="43.78694339773877" lon="11.510720027019763"><ele>525.75</ele><time>2026-05-05T15:48:51.999Z</time></trkpt><trkpt lat="43.786848713005185" lon="11.510594418708838"><ele>526.0</ele><time>2026-05-05T15:48:52.999Z</time></trkpt><trkpt lat="43.786745159502175" lon="11.510463368557431"><ele>523.0</ele><time>2026-05-05T15:48:53.999Z</time></trkpt><trkpt lat="43.786634388585874" lon="11.510328230888616"><ele>520.0</ele><time>2026-05-05T15:48:54.999Z</time></trkpt><trkpt lat="43.78652178165472" lon="11.510187058057793"><ele>517.0</ele><time>2026-05-05T15:48:55.999Z</time></trkpt><trkpt lat="43.786399481788905" lon="11.510040034032768"><ele>517.0</ele><time>2026-05-05T15:48:56.999Z</time></trkpt><trkpt lat="43.786271400799095" lon="11.509887868486352"><ele>517.0</ele><time>2026-05-05T15:48:57.999Z</time></trkpt><trkpt lat="43.7861410514802" lon="11.50973151444685"><ele>517.0</ele><time>2026-05-05T15:48:58.999Z</time></trkpt><trkpt lat="43.78601026574107" lon="11.50957629272677"><ele>516.3333333333334</ele><time>2026-05-05T15:48:59.999Z</time></trkpt><trkpt lat="43.78588461873733" lon="11.509425775427765"><ele>515.6666666666666</ele><time>2026-05-05T15:49:00.999Z</time></trkpt><trkpt lat="43.78578052679507" lon="11.509256746072804"><ele>515.0</ele><time>2026-05-05T15:49:01.999Z</time></trkpt><trkpt lat="43.78569602378558" lon="11.50906086682542"><ele>515.0</ele><time>2026-05-05T15:49:02.999Z</time></trkpt><trkpt lat="43.78561799697915" lon="11.50885646485986"><ele>515.0</ele><time>2026-05-05T15:49:03.999Z</time></trkpt><trkpt lat="43.78553726964766" lon="11.508646775767838"><ele>515.0</ele><time>2026-05-05T15:49:04.999Z</time></trkpt><trkpt lat="43.78545686474034" lon="11.508429906519645"><ele>513.0</ele><time>2026-05-05T15:49:05.999Z</time></trkpt><trkpt lat="43.78537941076798" lon="11.50820827044598"><ele>511.0</ele><time>2026-05-05T15:49:06.999Z</time></trkpt><trkpt lat="43.785309431170255" lon="11.507976292273547"><ele>509.0</ele><time>2026-05-05T15:49:07.999Z</time></trkpt><trkpt lat="43.785244196588216" lon="11.507744824474218"><ele>507.0</ele><time>2026-05-05T15:49:08.999Z</time></trkpt><trkpt lat="43.785186329822444" lon="11.507509132204364"><ele>505.0</ele><time>2026-05-05T15:49:09.999Z</time></trkpt><trkpt lat="43.78513908758495" lon="11.507268861918844"><ele>503.0</ele><time>2026-05-05T15:49:10.999Z</time></trkpt><trkpt lat="43.78509477207326" lon="11.507024814464513"><ele>501.66666666666663</ele><time>2026-05-05T15:49:11.999Z</time></trkpt><trkpt lat="43.78505308707694" lon="11.506779662628913"><ele>500.33333333333337</ele><time>2026-05-05T15:49:12.999Z</time></trkpt><trkpt lat="43.78501175772886" lon="11.506534974723943"><ele>499.0</ele><time>2026-05-05T15:49:13.999Z</time></trkpt><trkpt lat="43.78497415107343" lon="11.506291922486934"><ele>496.6666666666667</ele><time>2026-05-05T15:49:14.999Z</time></trkpt><trkpt lat="43.78494231580646" lon="11.506048614446897"><ele>494.33333333333337</ele><time>2026-05-05T15:49:15.998Z</time></trkpt><trkpt lat="43.78491505870217" lon="11.505809412424968"><ele>492.0</ele><time>2026-05-05T15:49:16.998Z</time></trkpt><trkpt lat="43.78488692126912" lon="11.505575915590256"><ele>491.0</ele><time>2026-05-05T15:49:17.998Z</time></trkpt><trkpt lat="43.78485337687676" lon="11.50534656222813"><ele>490.0</ele><time>2026-05-05T15:49:18.998Z</time></trkpt><trkpt lat="43.784812595180554" lon="11.505123327653681"><ele>489.0</ele><time>2026-05-05T15:49:19.998Z</time></trkpt><trkpt lat="43.784773720758466" lon="11.50491285874296"><ele>489.0</ele><time>2026-05-05T15:49:20.998Z</time></trkpt><trkpt lat="43.78474225961338" lon="11.504703856646623"><ele>489.0</ele><time>2026-05-05T15:49:21.998Z</time></trkpt><trkpt lat="43.78471046891298" lon="11.504495426025324"><ele>489.0</ele><time>2026-05-05T15:49:22.998Z</time></trkpt><trkpt lat="43.78467597478427" lon="11.504286719556678"><ele>487.33333333333337</ele><time>2026-05-05T15:49:23.998Z</time></trkpt><trkpt lat="43.784637805558845" lon="11.504079992696617"><ele>485.6666666666667</ele><time>2026-05-05T15:49:24.998Z</time></trkpt><trkpt lat="43.7845969445956" lon="11.503878170596263"><ele>484.0</ele><time>2026-05-05T15:49:25.998Z</time></trkpt><trkpt lat="43.78455489808569" lon="11.503684763081406"><ele>484.0</ele><time>2026-05-05T15:49:26.998Z</time></trkpt><trkpt lat="43.784516204120905" lon="11.50349628246322"><ele>484.0</ele><time>2026-05-05T15:49:27.998Z</time></trkpt><trkpt lat="43.78448577573477" lon="11.503310829533236"><ele>484.0</ele><time>2026-05-05T15:49:28.998Z</time></trkpt><trkpt lat="43.784495900705544" lon="11.503136065971223"><ele>484.0</ele><time>2026-05-05T15:49:29.998Z</time></trkpt><trkpt lat="43.78451547286216" lon="11.502945563360782"><ele>483.25</ele><time>2026-05-05T15:49:30.998Z</time></trkpt><trkpt lat="43.78453871329209" lon="11.502772627379024"><ele>482.5</ele><time>2026-05-05T15:49:31.998Z</time></trkpt><trkpt lat="43.784577368223566" lon="11.502586333071264"><ele>481.75</ele><time>2026-05-05T15:49:32.998Z</time></trkpt><trkpt lat="43.784607849091934" lon="11.502417753744579"><ele>481.0</ele><time>2026-05-05T15:49:33.998Z</time></trkpt><trkpt lat="43.784633292080855" lon="11.502248526654007"><ele>480.5</ele><time>2026-05-05T15:49:34.998Z</time></trkpt><trkpt lat="43.784654806016505" lon="11.5020780402671"><ele>480.0</ele><time>2026-05-05T15:49:35.998Z</time></trkpt><trkpt lat="43.784646013032955" lon="11.501902141512144"><ele>479.5</ele><time>2026-05-05T15:49:36.998Z</time></trkpt><trkpt lat="43.784616591222" lon="11.501726696319505"><ele>479.0</ele><time>2026-05-05T15:49:37.998Z</time></trkpt><trkpt lat="43.78456069587725" lon="11.501554273776106"><ele>479.0</ele><time>2026-05-05T15:49:38.998Z</time></trkpt><trkpt lat="43.784494924603415" lon="11.501385485027939"><ele>479.0</ele><time>2026-05-05T15:49:39.998Z</time></trkpt><trkpt lat="43.78442237101646" lon="11.5012133091675"><ele>479.0</ele><time>2026-05-05T15:49:40.998Z</time></trkpt><trkpt lat="43.78434919853427" lon="11.501038636454789"><ele>479.0</ele><time>2026-05-05T15:49:41.998Z</time></trkpt><trkpt lat="43.78428617103226" lon="11.500867012223754"><ele>477.5</ele><time>2026-05-05T15:49:42.998Z</time></trkpt><trkpt lat="43.78425102434415" lon="11.500680402769433"><ele>476.0</ele><time>2026-05-05T15:49:43.998Z</time></trkpt><trkpt lat="43.78424491756218" lon="11.500481520131373"><ele>474.5</ele><time>2026-05-05T15:49:44.998Z</time></trkpt><trkpt lat="43.78429384631646" lon="11.500286570291655"><ele>473.0</ele><time>2026-05-05T15:49:45.998Z</time></trkpt><trkpt lat="43.7843214163189" lon="11.50006806385104"><ele>469.66666666666663</ele><time>2026-05-05T15:49:46.998Z</time></trkpt><trkpt lat="43.78436957475578" lon="11.499848280243823"><ele>466.33333333333337</ele><time>2026-05-05T15:49:47.998Z</time></trkpt><trkpt lat="43.78441518348439" lon="11.499626149203262"><ele>463.0</ele><time>2026-05-05T15:49:48.998Z</time></trkpt><trkpt lat="43.78446126993804" lon="11.499422997925913"><ele>462.5</ele><time>2026-05-05T15:49:49.998Z</time></trkpt><trkpt lat="43.784497796055" lon="11.499226939623583"><ele>462.0</ele><time>2026-05-05T15:49:50.998Z</time></trkpt><trkpt lat="43.784493853807334" lon="11.499020064739963"><ele>461.5</ele><time>2026-05-05T15:49:51.998Z</time></trkpt><trkpt lat="43.784450695630476" lon="11.498817822123863"><ele>461.0</ele><time>2026-05-05T15:49:52.998Z</time></trkpt><trkpt lat="43.78437699141569" lon="11.49862622449764"><ele>460.66666666666663</ele><time>2026-05-05T15:49:53.997Z</time></trkpt><trkpt lat="43.7842798993676" lon="11.498442738272763"><ele>460.33333333333337</ele><time>2026-05-05T15:49:54.997Z</time></trkpt><trkpt lat="43.784180088911796" lon="11.498265057565646"><ele>460.0</ele><time>2026-05-05T15:49:55.997Z</time></trkpt><trkpt lat="43.78407738470051" lon="11.498106938395223"><ele>460.0</ele><time>2026-05-05T15:49:56.997Z</time></trkpt><trkpt lat="43.78397562460258" lon="11.497977133385442"><ele>460.0</ele><time>2026-05-05T15:49:57.997Z</time></trkpt><trkpt lat="43.78387645850061" lon="11.497866556373797"><ele>460.0</ele><time>2026-05-05T15:49:58.997Z</time></trkpt><trkpt lat="43.783790555467284" lon="11.497763890431562"><ele>460.0</ele><time>2026-05-05T15:49:59.997Z</time></trkpt><trkpt lat="43.783731637570185" lon="11.497639844348045"><ele>459.25</ele><time>2026-05-05T15:50:00.997Z</time></trkpt><trkpt lat="43.78371225565392" lon="11.497479295973733"><ele>458.5</ele><time>2026-05-05T15:50:01.997Z</time></trkpt><trkpt lat="43.78376724927936" lon="11.497316347403995"><ele>457.75</ele><time>2026-05-05T15:50:02.997Z</time></trkpt><trkpt lat="43.78383937695758" lon="11.497147105203576"><ele>457.0</ele><time>2026-05-05T15:50:03.997Z</time></trkpt><trkpt lat="43.78390745783369" lon="11.496946705770757"><ele>455.33333333333337</ele><time>2026-05-05T15:50:04.997Z</time></trkpt><trkpt lat="43.78397406349709" lon="11.496739708865308"><ele>453.66666666666663</ele><time>2026-05-05T15:50:05.997Z</time></trkpt><trkpt lat="43.78401456927144" lon="11.496522267724806"><ele>452.0</ele><time>2026-05-05T15:50:06.997Z</time></trkpt><trkpt lat="43.78402616543832" lon="11.49629403407371"><ele>449.66666666666663</ele><time>2026-05-05T15:50:07.997Z</time></trkpt><trkpt lat="43.78400764618023" lon="11.496056194184671"><ele>447.33333333333337</ele><time>2026-05-05T15:50:08.997Z</time></trkpt><trkpt lat="43.78397904840789" lon="11.495812945876182"><ele>445.0</ele><time>2026-05-05T15:50:09.997Z</time></trkpt><trkpt lat="43.783936473512234" lon="11.495567827576378"><ele>443.0</ele><time>2026-05-05T15:50:11Z</time></trkpt><trkpt lat="43.783877931206014" lon="11.495326464521908"><ele>441.0</ele><time>2026-05-05T15:50:12Z</time></trkpt><trkpt lat="43.7838084657076" lon="11.495087810532132"><ele>439.0</ele><time>2026-05-05T15:50:13Z</time></trkpt><trkpt lat="43.78373895038411" lon="11.494861059487544"><ele>439.0</ele><time>2026-05-05T15:50:14Z</time></trkpt><trkpt lat="43.783694436094436" lon="11.49464373395741"><ele>439.0</ele><time>2026-05-05T15:50:15Z</time></trkpt><trkpt lat="43.783681025032024" lon="11.494436277077348"><ele>439.0</ele><time>2026-05-05T15:50:16Z</time></trkpt><trkpt lat="43.783667782070694" lon="11.494248854751673"><ele>439.0</ele><time>2026-05-05T15:50:17Z</time></trkpt><trkpt lat="43.78362076063834" lon="11.494073344069939"><ele>437.6666666666667</ele><time>2026-05-05T15:50:18Z</time></trkpt><trkpt lat="43.7835210612251" lon="11.493915007560934"><ele>436.33333333333337</ele><time>2026-05-05T15:50:19Z</time></trkpt><trkpt lat="43.78339315420854" lon="11.493772557809397"><ele>435.0</ele><time>2026-05-05T15:50:20Z</time></trkpt><trkpt lat="43.783260454818084" lon="11.493627282701016"><ele>431.66666666666663</ele><time>2026-05-05T15:50:21Z</time></trkpt><trkpt lat="43.783130053178745" lon="11.493481487412861"><ele>428.3333333333333</ele><time>2026-05-05T15:50:22Z</time></trkpt><trkpt lat="43.78300223743627" lon="11.493338331328523"><ele>425.0</ele><time>2026-05-05T15:50:23Z</time></trkpt><trkpt lat="43.7828906077231" lon="11.49320871362096"><ele>425.0</ele><time>2026-05-05T15:50:24Z</time></trkpt><trkpt lat="43.78281222106896" lon="11.493074422235162"><ele>425.0</ele><time>2026-05-05T15:50:25Z</time></trkpt><trkpt lat="43.78276624967852" lon="11.492915250953313"><ele>425.0</ele><time>2026-05-05T15:50:26Z</time></trkpt><trkpt lat="43.782773672104646" lon="11.492724661391609"><ele>425.0</ele><time>2026-05-05T15:50:27Z</time></trkpt><trkpt lat="43.782767590063116" lon="11.492516984951923"><ele>423.66666666666663</ele><time>2026-05-05T15:50:28Z</time></trkpt><trkpt lat="43.78277898669868" lon="11.492297483437397"><ele>422.33333333333337</ele><time>2026-05-05T15:50:29Z</time></trkpt><trkpt lat="43.78277554464578" lon="11.492063170029056"><ele>421.0</ele><time>2026-05-05T15:50:30Z</time></trkpt><trkpt lat="43.78275079667082" lon="11.491829242547146"><ele>418.6666666666667</ele><time>2026-05-05T15:50:31Z</time></trkpt><trkpt lat="43.78271433620643" lon="11.491597954180301"><ele>416.33333333333337</ele><time>2026-05-05T15:50:32Z</time></trkpt><trkpt lat="43.78267172027615" lon="11.491368114925592"><ele>414.0</ele><time>2026-05-05T15:50:33Z</time></trkpt><trkpt lat="43.7826324780994" lon="11.491146150207722"><ele>409.33333333333337</ele><time>2026-05-05T15:50:34Z</time></trkpt><trkpt lat="43.78258881862426" lon="11.490929619307467"><ele>404.6666666666667</ele><time>2026-05-05T15:50:35Z</time></trkpt><trkpt lat="43.78252882333331" lon="11.490718076197409"><ele>400.0</ele><time>2026-05-05T15:50:36Z</time></trkpt><trkpt lat="43.78245718591523" lon="11.490513207224923"><ele>400.0</ele><time>2026-05-05T15:50:37Z</time></trkpt><trkpt lat="43.782366417235764" lon="11.49032281521346"><ele>400.0</ele><time>2026-05-05T15:50:38Z</time></trkpt><trkpt lat="43.78224341017373" lon="11.4901691519981"><ele>400.0</ele><time>2026-05-05T15:50:39Z</time></trkpt><trkpt lat="43.782098922302474" lon="11.490054399091147"><ele>400.0</ele><time>2026-05-05T15:50:40Z</time></trkpt><trkpt lat="43.78195355415575" lon="11.489943034514557"><ele>400.0</ele><time>2026-05-05T15:50:40.999Z</time></trkpt><trkpt lat="43.78181227189877" lon="11.48982219657614"><ele>400.0</ele><time>2026-05-05T15:50:41.999Z</time></trkpt><trkpt lat="43.78166948324307" lon="11.489701200771517"><ele>400.0</ele><time>2026-05-05T15:50:42.999Z</time></trkpt><trkpt lat="43.7815275358851" lon="11.489579560368272"><ele>400.0</ele><time>2026-05-05T15:50:43.999Z</time></trkpt><trkpt lat="43.781392981341305" lon="11.489449387003367"><ele>400.0</ele><time>2026-05-05T15:50:44.999Z</time></trkpt><trkpt lat="43.78128411357881" lon="11.489320604073697"><ele>400.0</ele><time>2026-05-05T15:50:45.999Z</time></trkpt><trkpt lat="43.78119963763153" lon="11.489171013820023"><ele>400.0</ele><time>2026-05-05T15:50:46.999Z</time></trkpt><trkpt lat="43.78112583257184" lon="11.489000275981239"><ele>400.0</ele><time>2026-05-05T15:50:47.999Z</time></trkpt><trkpt lat="43.78105458405177" lon="11.488831371432637"><ele>400.0</ele><time>2026-05-05T15:50:48.999Z</time></trkpt><trkpt lat="43.7809930006963" lon="11.488671453598215"><ele>396.5</ele><time>2026-05-05T15:50:49.999Z</time></trkpt><trkpt lat="43.78094208837664" lon="11.488505207085286"><ele>393.0</ele><time>2026-05-05T15:50:50.999Z</time></trkpt><trkpt lat="43.78091985981409" lon="11.48831593117285"><ele>389.5</ele><time>2026-05-05T15:50:51.999Z</time></trkpt><trkpt lat="43.78096005339283" lon="11.488112048120176"><ele>386.0</ele><time>2026-05-05T15:50:52.999Z</time></trkpt><trkpt lat="43.781013041229635" lon="11.487904517605577"><ele>385.66666666666663</ele><time>2026-05-05T15:50:53.999Z</time></trkpt><trkpt lat="43.78106178306808" lon="11.487681194916327"><ele>385.33333333333337</ele><time>2026-05-05T15:50:54.999Z</time></trkpt><trkpt lat="43.78111295736125" lon="11.487450784419377"><ele>385.0</ele><time>2026-05-05T15:50:55.999Z</time></trkpt><trkpt lat="43.781146005174556" lon="11.48720251854259"><ele>382.6666666666667</ele><time>2026-05-05T15:50:56.999Z</time></trkpt><trkpt lat="43.78117119517252" lon="11.486950176533433"><ele>380.33333333333337</ele><time>2026-05-05T15:50:57.999Z</time></trkpt><trkpt lat="43.78119738665686" lon="11.486703960909278"><ele>378.0</ele><time>2026-05-05T15:50:58.999Z</time></trkpt><trkpt lat="43.7812203294672" lon="11.486476893844467"><ele>378.0</ele><time>2026-05-05T15:50:59.999Z</time></trkpt><trkpt lat="43.78123377725394" lon="11.48626857698048"><ele>378.0</ele><time>2026-05-05T15:51:00.999Z</time></trkpt><trkpt lat="43.78122588928633" lon="11.486066543131171"><ele>378.0</ele><time>2026-05-05T15:51:01.999Z</time></trkpt><trkpt lat="43.78117828657072" lon="11.485872060193167"><ele>378.0</ele><time>2026-05-05T15:51:02.999Z</time></trkpt><trkpt lat="43.781093818977766" lon="11.485686046598866"><ele>373.3333333333333</ele><time>2026-05-05T15:51:03.999Z</time></trkpt><trkpt lat="43.78099621099425" lon="11.485493005198373"><ele>368.66666666666663</ele><time>2026-05-05T15:51:04.999Z</time></trkpt><trkpt lat="43.780901444384945" lon="11.485284382626872"><ele>364.0</ele><time>2026-05-05T15:51:05.999Z</time></trkpt><trkpt lat="43.78082362963944" lon="11.48505277700202"><ele>363.66666666666663</ele><time>2026-05-05T15:51:06.999Z</time></trkpt><trkpt lat="43.78074702304809" lon="11.484818965921399"><ele>363.3333333333333</ele><time>2026-05-05T15:51:07.999Z</time></trkpt><trkpt lat="43.78066630792234" lon="11.48458301067328"><ele>363.0</ele><time>2026-05-05T15:51:08.999Z</time></trkpt><trkpt lat="43.78058540725332" lon="11.484344418796235"><ele>362.3333333333333</ele><time>2026-05-05T15:51:09.999Z</time></trkpt><trkpt lat="43.78051188120024" lon="11.484114350983793"><ele>361.66666666666663</ele><time>2026-05-05T15:51:10.999Z</time></trkpt><trkpt lat="43.7804527811439" lon="11.483898571029846"><ele>361.0</ele><time>2026-05-05T15:51:11.999Z</time></trkpt><trkpt lat="43.78042783998109" lon="11.483667849589436"><ele>359.66666666666663</ele><time>2026-05-05T15:51:12.999Z</time></trkpt><trkpt lat="43.780426888532595" lon="11.48343537111098"><ele>358.3333333333333</ele><time>2026-05-05T15:51:13.999Z</time></trkpt><trkpt lat="43.780410924450656" lon="11.483215003704812"><ele>357.0</ele><time>2026-05-05T15:51:14.999Z</time></trkpt><trkpt lat="43.780373444203555" lon="11.483007229656765"><ele>355.6666666666667</ele><time>2026-05-05T15:51:15.999Z</time></trkpt><trkpt lat="43.78029067593851" lon="11.48281296932159"><ele>354.33333333333337</ele><time>2026-05-05T15:51:16.999Z</time></trkpt><trkpt lat="43.78018464774363" lon="11.482638902777419"><ele>353.0</ele><time>2026-05-05T15:51:17.999Z</time></trkpt><trkpt lat="43.78007667779303" lon="11.48246059274519"><ele>349.33333333333337</ele><time>2026-05-05T15:51:18.999Z</time></trkpt><trkpt lat="43.77997152420405" lon="11.482274966887847"><ele>345.6666666666667</ele><time>2026-05-05T15:51:19.998Z</time></trkpt><trkpt lat="43.77986625934841" lon="11.482083543812822"><ele>342.0</ele><time>2026-05-05T15:51:20.998Z</time></trkpt><trkpt lat="43.77975905020983" lon="11.481891078584164"><ele>342.0</ele><time>2026-05-05T15:51:21.998Z</time></trkpt><trkpt lat="43.779652511927445" lon="11.481700816028791"><ele>342.0</ele><time>2026-05-05T15:51:22.998Z</time></trkpt><trkpt lat="43.77955454725895" lon="11.481521199229867"><ele>342.0</ele><time>2026-05-05T15:51:23.998Z</time></trkpt><trkpt lat="43.77945999777778" lon="11.481353370840743"><ele>343.0</ele><time>2026-05-05T15:51:24.998Z</time></trkpt><trkpt lat="43.77935347855383" lon="11.481213764874514"><ele>344.0</ele><time>2026-05-05T15:51:25.998Z</time></trkpt><trkpt lat="43.779222924485644" lon="11.481112606659359"><ele>345.0</ele><time>2026-05-05T15:51:26.998Z</time></trkpt><trkpt lat="43.77907955864858" lon="11.481039392294273"><ele>346.0</ele><time>2026-05-05T15:51:27.998Z</time></trkpt><trkpt lat="43.778933226885044" lon="11.480976657076072"><ele>342.3333333333333</ele><time>2026-05-05T15:51:28.998Z</time></trkpt><trkpt lat="43.77879217357501" lon="11.48089484014558"><ele>338.6666666666667</ele><time>2026-05-05T15:51:29.998Z</time></trkpt><trkpt lat="43.778661936555096" lon="11.480782279732193"><ele>335.0</ele><time>2026-05-05T15:51:30.998Z</time></trkpt><trkpt lat="43.77854115593739" lon="11.480640038630643"><ele>331.6666666666667</ele><time>2026-05-05T15:51:31.998Z</time></trkpt><trkpt lat="43.778430549819966" lon="11.480473273553391"><ele>328.3333333333333</ele><time>2026-05-05T15:51:32.998Z</time></trkpt><trkpt lat="43.778328861446845" lon="11.480289526582242"><ele>325.0</ele><time>2026-05-05T15:51:33.998Z</time></trkpt><trkpt lat="43.778227257941964" lon="11.480094453947276"><ele>325.0</ele><time>2026-05-05T15:51:34.998Z</time></trkpt><trkpt lat="43.778125167586914" lon="11.479895249004182"><ele>325.0</ele><time>2026-05-05T15:51:35.998Z</time></trkpt><trkpt lat="43.7780257911415" lon="11.479698321908916"><ele>325.0</ele><time>2026-05-05T15:51:36.998Z</time></trkpt><trkpt lat="43.77793750896534" lon="11.479516009956782"><ele>326.5</ele><time>2026-05-05T15:51:37.998Z</time></trkpt><trkpt lat="43.777859221423775" lon="11.47936550942991"><ele>328.0</ele><time>2026-05-05T15:51:38.998Z</time></trkpt><trkpt lat="43.777762612928505" lon="11.47926142036641"><ele>329.5</ele><time>2026-05-05T15:51:39.998Z</time></trkpt><trkpt lat="43.77763479329714" lon="11.47920632640718"><ele>331.0</ele><time>2026-05-05T15:51:40.998Z</time></trkpt><trkpt lat="43.77749218264458" lon="11.479189079464128"><ele>326.3333333333333</ele><time>2026-05-05T15:51:41.998Z</time></trkpt><trkpt lat="43.77734020499941" lon="11.479162118840975"><ele>321.6666666666667</ele><time>2026-05-05T15:51:42.998Z</time></trkpt><trkpt lat="43.77718055910818" lon="11.479128582054011"><ele>317.0</ele><time>2026-05-05T15:51:43.998Z</time></trkpt><trkpt lat="43.77701747403115" lon="11.479095047281277"><ele>317.0</ele><time>2026-05-05T15:51:44.998Z</time></trkpt><trkpt lat="43.776857733991655" lon="11.47905625985666"><ele>317.0</ele><time>2026-05-05T15:51:45.998Z</time></trkpt><trkpt lat="43.77671478673333" lon="11.47901862845534"><ele>317.0</ele><time>2026-05-05T15:51:46.998Z</time></trkpt><trkpt lat="43.77659798407554" lon="11.4789700480683"><ele>317.0</ele><time>2026-05-05T15:51:47.998Z</time></trkpt><trkpt lat="43.77650023466622" lon="11.478891046290844"><ele>315.0</ele><time>2026-05-05T15:51:48.998Z</time></trkpt><trkpt lat="43.77644777742768" lon="11.478738232573214"><ele>313.0</ele><time>2026-05-05T15:51:49.998Z</time></trkpt><trkpt lat="43.776403892895395" lon="11.478563234088213"><ele>311.0</ele><time>2026-05-05T15:51:50.998Z</time></trkpt><trkpt lat="43.77636847423841" lon="11.47836860630078"><ele>309.0</ele><time>2026-05-05T15:51:51.998Z</time></trkpt><trkpt lat="43.77632501336035" lon="11.478156293562508"><ele>309.0</ele><time>2026-05-05T15:51:52.998Z</time></trkpt><trkpt lat="43.77626669268102" lon="11.477942855962741"><ele>309.0</ele><time>2026-05-05T15:51:53.998Z</time></trkpt><trkpt lat="43.77617441737589" lon="11.477745757761003"><ele>309.0</ele><time>2026-05-05T15:51:54.998Z</time></trkpt><trkpt lat="43.77605975563343" lon="11.47755939603228"><ele>305.0</ele><time>2026-05-05T15:51:55.998Z</time></trkpt><trkpt lat="43.77593332151997" lon="11.47738058174473"><ele>301.0</ele><time>2026-05-05T15:51:56.998Z</time></trkpt><trkpt lat="43.77580072097006" lon="11.47721009920175"><ele>297.0</ele><time>2026-05-05T15:51:57.997Z</time></trkpt><trkpt lat="43.775640977296376" lon="11.4770812809144"><ele>297.0</ele><time>2026-05-05T15:51:58.997Z</time></trkpt><trkpt lat="43.77546732826819" lon="11.47697900969491"><ele>297.0</ele><time>2026-05-05T15:51:59.997Z</time></trkpt><trkpt lat="43.77528868503303" lon="11.4768744360019"><ele>297.0</ele><time>2026-05-05T15:52:00.997Z</time></trkpt><trkpt lat="43.775109271431546" lon="11.47676214238727"><ele>294.3333333333333</ele><time>2026-05-05T15:52:01.997Z</time></trkpt><trkpt lat="43.77492989673466" lon="11.476648300298061"><ele>291.66666666666663</ele><time>2026-05-05T15:52:02.997Z</time></trkpt><trkpt lat="43.774751157058134" lon="11.476539966440168"><ele>289.0</ele><time>2026-05-05T15:52:03.997Z</time></trkpt><trkpt lat="43.77457343239729" lon="11.47643358115704"><ele>289.0</ele><time>2026-05-05T15:52:04.997Z</time></trkpt><trkpt lat="43.77439993452645" lon="11.476318686616704"><ele>289.0</ele><time>2026-05-05T15:52:05.997Z</time></trkpt><trkpt lat="43.77423998433228" lon="11.47617044158722"><ele>289.0</ele><time>2026-05-05T15:52:06.997Z</time></trkpt><trkpt lat="43.774096209502" lon="11.475992565519896"><ele>287.3333333333333</ele><time>2026-05-05T15:52:07.997Z</time></trkpt><trkpt lat="43.77395045962098" lon="11.47581371079668"><ele>285.6666666666667</ele><time>2026-05-05T15:52:08.997Z</time></trkpt><trkpt lat="43.77379993497984" lon="11.47563839937324"><ele>284.0</ele><time>2026-05-05T15:52:09.997Z</time></trkpt><trkpt lat="43.773651853474576" lon="11.475463674490921"><ele>281.0</ele><time>2026-05-05T15:52:10.997Z</time></trkpt><trkpt lat="43.773519455588435" lon="11.475310118752096"><ele>278.0</ele><time>2026-05-05T15:52:11.997Z</time></trkpt><trkpt lat="43.77341952528241" lon="11.475151451029573"><ele>275.0</ele><time>2026-05-05T15:52:12.997Z</time></trkpt><trkpt lat="43.77336492170278" lon="11.474954235373078"><ele>275.0</ele><time>2026-05-05T15:52:13.997Z</time></trkpt><trkpt lat="43.77333091163519" lon="11.474742186669232"><ele>275.0</ele><time>2026-05-05T15:52:14.997Z</time></trkpt><trkpt lat="43.77328871475778" lon="11.474525349808339"><ele>275.0</ele><time>2026-05-05T15:52:15.997Z</time></trkpt><trkpt lat="43.77324196981113" lon="11.474304182908782"><ele>274.5</ele><time>2026-05-05T15:52:17Z</time></trkpt><trkpt lat="43.773196922530886" lon="11.47408740386391"><ele>274.0</ele><time>2026-05-05T15:52:18Z</time></trkpt><trkpt lat="43.773157267014874" lon="11.47389398424635"><ele>273.5</ele><time>2026-05-05T15:52:19Z</time></trkpt><trkpt lat="43.77311900514153" lon="11.473723378406149"><ele>273.0</ele><time>2026-05-05T15:52:20Z</time></trkpt><trkpt lat="43.77305943742335" lon="11.473572367917948"><ele>272.75</ele><time>2026-05-05T15:52:21Z</time></trkpt><trkpt lat="43.77296885259151" lon="11.473434952454603"><ele>272.5</ele><time>2026-05-05T15:52:22Z</time></trkpt><trkpt lat="43.77285345754577" lon="11.47331318703686"><ele>272.25</ele><time>2026-05-05T15:52:23Z</time></trkpt><trkpt lat="43.772726850235465" lon="11.473187393911461"><ele>272.0</ele><time>2026-05-05T15:52:24Z</time></trkpt><trkpt lat="43.772592325684954" lon="11.473061355958"><ele>269.6666666666667</ele><time>2026-05-05T15:52:25Z</time></trkpt><trkpt lat="43.77246053015165" lon="11.472927359672884"><ele>267.3333333333333</ele><time>2026-05-05T15:52:26Z</time></trkpt><trkpt lat="43.77233085969755" lon="11.472786447472874"><ele>265.0</ele><time>2026-05-05T15:52:27Z</time></trkpt><trkpt lat="43.77220921341764" lon="11.472661793783681"><ele>265.0</ele><time>2026-05-05T15:52:28Z</time></trkpt><trkpt lat="43.77208490484471" lon="11.472576285225648"><ele>265.0</ele><time>2026-05-05T15:52:29Z</time></trkpt><trkpt lat="43.771938076601664" lon="11.472545594244181"><ele>265.0</ele><time>2026-05-05T15:52:30Z</time></trkpt><trkpt lat="43.771787246707824" lon="11.47255890102174"><ele>265.0</ele><time>2026-05-05T15:52:31Z</time></trkpt><trkpt lat="43.77163562834613" lon="11.472581074069133"><ele>262.5</ele><time>2026-05-05T15:52:32Z</time></trkpt><trkpt lat="43.77148580282406" lon="11.472625133482984"><ele>260.0</ele><time>2026-05-05T15:52:33Z</time></trkpt><trkpt lat="43.771337921188696" lon="11.472682558928565"><ele>257.5</ele><time>2026-05-05T15:52:34Z</time></trkpt><trkpt lat="43.77120950289185" lon="11.472727775051627"><ele>255.0</ele><time>2026-05-05T15:52:35Z</time></trkpt><trkpt lat="43.771095733470254" lon="11.47274314873669"><ele>252.25</ele><time>2026-05-05T15:52:36Z</time></trkpt><trkpt lat="43.77099057633394" lon="11.47269467099717"><ele>249.5</ele><time>2026-05-05T15:52:37Z</time></trkpt><trkpt lat="43.77089733511794" lon="11.472568928893633"><ele>246.75</ele><time>2026-05-05T15:52:38Z</time></trkpt><trkpt lat="43.770812557853176" lon="11.472412363631888"><ele>244.0</ele><time>2026-05-05T15:52:39Z</time></trkpt><trkpt lat="43.770712314348245" lon="11.472266621827778"><ele>244.0</ele><time>2026-05-05T15:52:40Z</time></trkpt><trkpt lat="43.770584189533004" lon="11.472155984633252"><ele>244.0</ele><time>2026-05-05T15:52:41Z</time></trkpt><trkpt lat="43.77043204729507" lon="11.472076556182923"><ele>244.0</ele><time>2026-05-05T15:52:42Z</time></trkpt><trkpt lat="43.77027134229288" lon="11.471992890420129"><ele>241.66666666666666</ele><time>2026-05-05T15:52:43Z</time></trkpt><trkpt lat="43.770115910937385" lon="11.471902212693262"><ele>239.33333333333331</ele><time>2026-05-05T15:52:44Z</time></trkpt><trkpt lat="43.76998056791156" lon="11.471817896609652"><ele>237.0</ele><time>2026-05-05T15:52:45Z</time></trkpt><trkpt lat="43.76985616305191" lon="11.471691386843709"><ele>237.0</ele><time>2026-05-05T15:52:46Z</time></trkpt><trkpt lat="43.76974561515524" lon="11.47153841497057"><ele>237.0</ele><time>2026-05-05T15:52:46.999Z</time></trkpt><trkpt lat="43.7696338284896" lon="11.471390248882043"><ele>237.0</ele><time>2026-05-05T15:52:47.999Z</time></trkpt><trkpt lat="43.769538338412865" lon="11.471264410235952"><ele>237.0</ele><time>2026-05-05T15:52:48.999Z</time></trkpt><trkpt lat="43.76946368194022" lon="11.471146644514713"><ele>235.75</ele><time>2026-05-05T15:52:49.999Z</time></trkpt><trkpt lat="43.76943128312916" lon="11.471008404489272"><ele>234.5</ele><time>2026-05-05T15:52:50.999Z</time></trkpt><trkpt lat="43.76945418057736" lon="11.470858585161286"><ele>233.25</ele><time>2026-05-05T15:52:51.999Z</time></trkpt><trkpt lat="43.76953694212341" lon="11.470741426241172"><ele>232.0</ele><time>2026-05-05T15:52:52.999Z</time></trkpt><trkpt lat="43.769659794742324" lon="11.470685290335819"><ele>232.0</ele><time>2026-05-05T15:52:53.999Z</time></trkpt><trkpt lat="43.76979636779466" lon="11.470724199479863"><ele>232.0</ele><time>2026-05-05T15:52:54.999Z</time></trkpt><trkpt lat="43.7699384332989" lon="11.470716519511083"><ele>232.0</ele><time>2026-05-05T15:52:55.999Z</time></trkpt><trkpt lat="43.77007782767238" lon="11.47071105545978"><ele>232.0</ele><time>2026-05-05T15:52:56.999Z</time></trkpt><trkpt lat="43.77020894392808" lon="11.470673404380593"><ele>230.75</ele><time>2026-05-05T15:52:57.999Z</time></trkpt><trkpt lat="43.770321071009754" lon="11.470583540874264"><ele>229.5</ele><time>2026-05-05T15:52:58.999Z</time></trkpt><trkpt lat="43.770402348698724" lon="11.47044277458001"><ele>228.25</ele><time>2026-05-05T15:52:59.999Z</time></trkpt><trkpt lat="43.770441740737596" lon="11.470262136947742"><ele>227.0</ele><time>2026-05-05T15:53:00.999Z</time></trkpt><trkpt lat="43.77044226903519" lon="11.470067213337495"><ele>227.0</ele><time>2026-05-05T15:53:01.999Z</time></trkpt><trkpt lat="43.770438549997635" lon="11.469861836192933"><ele>227.0</ele><time>2026-05-05T15:53:02.999Z</time></trkpt><trkpt lat="43.770431429884745" lon="11.469645321326789"><ele>227.0</ele><time>2026-05-05T15:53:03.999Z</time></trkpt><trkpt lat="43.770420664411596" lon="11.46942453304887"><ele>224.66666666666669</ele><time>2026-05-05T15:53:04.999Z</time></trkpt><trkpt lat="43.77040754454591" lon="11.469202560955754"><ele>222.33333333333331</ele><time>2026-05-05T15:53:05.999Z</time></trkpt><trkpt lat="43.7703936044652" lon="11.468990612275823"><ele>220.0</ele><time>2026-05-05T15:53:06.999Z</time></trkpt><trkpt lat="43.77037869733315" lon="11.468804123567867"><ele>218.0</ele><time>2026-05-05T15:53:07.999Z</time></trkpt><trkpt lat="43.77036193818157" lon="11.468630063370126"><ele>216.0</ele><time>2026-05-05T15:53:08.999Z</time></trkpt><trkpt lat="43.77034967707524" lon="11.46845656495235"><ele>214.0</ele><time>2026-05-05T15:53:09.999Z</time></trkpt><trkpt lat="43.770341965899085" lon="11.468279854840015"><ele>212.0</ele><time>2026-05-05T15:53:10.999Z</time></trkpt><trkpt lat="43.770330700532234" lon="11.468101153474844"><ele>210.75</ele><time>2026-05-05T15:53:11.999Z</time></trkpt><trkpt lat="43.77031648251582" lon="11.46791547966569"><ele>209.5</ele><time>2026-05-05T15:53:12.999Z</time></trkpt><trkpt lat="43.77029904245503" lon="11.467727169912507"><ele>208.25</ele><time>2026-05-05T15:53:13.999Z</time></trkpt><trkpt lat="43.770289550416244" lon="11.467533792692588"><ele>207.0</ele><time>2026-05-05T15:53:14.999Z</time></trkpt><trkpt lat="43.77029240636919" lon="11.467336329027418"><ele>207.0</ele><time>2026-05-05T15:53:15.999Z</time></trkpt><trkpt lat="43.77029842134847" lon="11.467131917929175"><ele>207.0</ele><time>2026-05-05T15:53:16.999Z</time></trkpt><trkpt lat="43.770306518438225" lon="11.466923364901866"><ele>207.0</ele><time>2026-05-05T15:53:17.999Z</time></trkpt><trkpt lat="43.77031552586334" lon="11.466713273547494"><ele>206.5</ele><time>2026-05-05T15:53:18.999Z</time></trkpt><trkpt lat="43.77032489074953" lon="11.466505665838355"><ele>206.0</ele><time>2026-05-05T15:53:19.999Z</time></trkpt><trkpt lat="43.77033164382333" lon="11.466304057415194"><ele>205.5</ele><time>2026-05-05T15:53:20.999Z</time></trkpt><trkpt lat="43.77034878336166" lon="11.466126254217926"><ele>205.0</ele><time>2026-05-05T15:53:21.999Z</time></trkpt><trkpt lat="43.77038679224055" lon="11.46598409005369"><ele>203.8</ele><time>2026-05-05T15:53:22.999Z</time></trkpt><trkpt lat="43.770436861389" lon="11.465869468878502"><ele>202.6</ele><time>2026-05-05T15:53:23.999Z</time></trkpt><trkpt lat="43.77046144871427" lon="11.465737992035871"><ele>201.39999999999998</ele><time>2026-05-05T15:53:24.999Z</time></trkpt><trkpt lat="43.77043891599245" lon="11.46559538842483"><ele>200.2</ele><time>2026-05-05T15:53:25.998Z</time></trkpt><trkpt lat="43.770448997102555" lon="11.46544163454158"><ele>199.0</ele><time>2026-05-05T15:53:26.998Z</time></trkpt><trkpt lat="43.7704956180131" lon="11.465282608656569"><ele>198.5</ele><time>2026-05-05T15:53:27.998Z</time></trkpt><trkpt lat="43.77054739371315" lon="11.465114501502566"><ele>198.0</ele><time>2026-05-05T15:53:28.998Z</time></trkpt><trkpt lat="43.770600964061195" lon="11.464939071463625"><ele>197.5</ele><time>2026-05-05T15:53:29.998Z</time></trkpt><trkpt lat="43.77065546182858" lon="11.464760992713078"><ele>197.0</ele><time>2026-05-05T15:53:30.998Z</time></trkpt><trkpt lat="43.77070475057083" lon="11.464581943628712"><ele>195.75</ele><time>2026-05-05T15:53:31.998Z</time></trkpt><trkpt lat="43.77074496913843" lon="11.464399686922736"><ele>194.5</ele><time>2026-05-05T15:53:32.998Z</time></trkpt><trkpt lat="43.77075441874144" lon="11.464207208670254"><ele>193.25</ele><time>2026-05-05T15:53:33.998Z</time></trkpt><trkpt lat="43.770745948846695" lon="11.464014422794845"><ele>192.0</ele><time>2026-05-05T15:53:34.998Z</time></trkpt><trkpt lat="43.770741410023625" lon="11.46382202748938"><ele>191.2</ele><time>2026-05-05T15:53:35.998Z</time></trkpt><trkpt lat="43.77073824084221" lon="11.463658020332064"><ele>190.39999999999998</ele><time>2026-05-05T15:53:36.998Z</time></trkpt><trkpt lat="43.77073510368368" lon="11.463512695115012"><ele>189.60000000000002</ele><time>2026-05-05T15:53:37.998Z</time></trkpt><trkpt lat="43.77073101697831" lon="11.463378811365608"><ele>188.8</ele><time>2026-05-05T15:53:38.998Z</time></trkpt><trkpt lat="43.77072584878153" lon="11.46323963346137"><ele>188.0</ele><time>2026-05-05T15:53:39.998Z</time></trkpt><trkpt lat="43.77072018872316" lon="11.463090985726325"><ele>186.5</ele><time>2026-05-05T15:53:40.998Z</time></trkpt><trkpt lat="43.77071318530291" lon="11.462935898404435"><ele>185.0</ele><time>2026-05-05T15:53:41.998Z</time></trkpt><trkpt lat="43.77070112013228" lon="11.462765351787265"><ele>183.5</ele><time>2026-05-05T15:53:42.998Z</time></trkpt><trkpt lat="43.770684132535045" lon="11.462586598797607"><ele>182.0</ele><time>2026-05-05T15:53:43.998Z</time></trkpt><trkpt lat="43.77066757891781" lon="11.462410073171647"><ele>182.0</ele><time>2026-05-05T15:53:44.998Z</time></trkpt><trkpt lat="43.770661464788745" lon="11.462248459939667"><ele>182.0</ele><time>2026-05-05T15:53:45.998Z</time></trkpt><trkpt lat="43.770676524365534" lon="11.46210653990688"><ele>182.0</ele><time>2026-05-05T15:53:46.998Z</time></trkpt><trkpt lat="43.77072052682895" lon="11.461996051414625"><ele>182.0</ele><time>2026-05-05T15:53:47.998Z</time></trkpt><trkpt lat="43.770822335741116" lon="11.46195249822479"><ele>182.0</ele><time>2026-05-05T15:53:48.998Z</time></trkpt><trkpt lat="43.770927385263946" lon="11.46188109604423"><ele>181.5</ele><time>2026-05-05T15:53:49.998Z</time></trkpt><trkpt lat="43.771044997953105" lon="11.461800072553146"><ele>181.0</ele><time>2026-05-05T15:53:50.998Z</time></trkpt><trkpt lat="43.77116899888662" lon="11.461695671521202"><ele>180.5</ele><time>2026-05-05T15:53:51.998Z</time></trkpt><trkpt lat="43.77131099277392" lon="11.461605753805461"><ele>180.0</ele><time>2026-05-05T15:53:52.998Z</time></trkpt><trkpt lat="43.77145889203227" lon="11.461514646197768"><ele>180.0</ele><time>2026-05-05T15:53:53.998Z</time></trkpt><trkpt lat="43.77161933739311" lon="11.461459641097164"><ele>180.0</ele><time>2026-05-05T15:53:54.998Z</time></trkpt><trkpt lat="43.77177484174667" lon="11.461394058053285"><ele>180.0</ele><time>2026-05-05T15:53:55.998Z</time></trkpt><trkpt lat="43.77192513845591" lon="11.461317665968647"><ele>175.25</ele><time>2026-05-05T15:53:56.998Z</time></trkpt><trkpt lat="43.77207570475969" lon="11.461273383447944"><ele>170.5</ele><time>2026-05-05T15:53:57.998Z</time></trkpt><trkpt lat="43.772213885053624" lon="11.461228655489423"><ele>165.75</ele><time>2026-05-05T15:53:58.998Z</time></trkpt><trkpt lat="43.77233745731882" lon="11.461169745897045"><ele>161.0</ele><time>2026-05-05T15:53:59.998Z</time></trkpt><trkpt lat="43.77244483472901" lon="11.461085481506267"><ele>161.0</ele><time>2026-05-05T15:54:00.998Z</time></trkpt><trkpt lat="43.772538171582646" lon="11.46095913021082"><ele>161.0</ele><time>2026-05-05T15:54:01.998Z</time></trkpt><trkpt lat="43.77260035776975" lon="11.460793797084046"><ele>161.0</ele><time>2026-05-05T15:54:02.998Z</time></trkpt><trkpt lat="43.77263477634399" lon="11.460607174698008"><ele>161.0</ele><time>2026-05-05T15:54:03.997Z</time></trkpt><trkpt lat="43.772674996542015" lon="11.460420359217649"><ele>163.5</ele><time>2026-05-05T15:54:04.997Z</time></trkpt><trkpt lat="43.77272875793047" lon="11.460233329281843"><ele>166.0</ele><time>2026-05-05T15:54:05.997Z</time></trkpt><trkpt lat="43.7728081074919" lon="11.460062010591328"><ele>168.5</ele><time>2026-05-05T15:54:06.997Z</time></trkpt><trkpt lat="43.772873591867246" lon="11.459889772265697"><ele>171.0</ele><time>2026-05-05T15:54:07.997Z</time></trkpt><trkpt lat="43.772927818537816" lon="11.45973072227479"><ele>170.0</ele><time>2026-05-05T15:54:08.997Z</time></trkpt><trkpt lat="43.77293628556368" lon="11.459545971799498"><ele>169.0</ele><time>2026-05-05T15:54:09.997Z</time></trkpt><trkpt lat="43.77290936850355" lon="11.459364841812935"><ele>168.0</ele><time>2026-05-05T15:54:10.997Z</time></trkpt><trkpt lat="43.77290023133374" lon="11.459176337119928"><ele>167.0</ele><time>2026-05-05T15:54:11.997Z</time></trkpt><trkpt lat="43.772906896657844" lon="11.458989119500723"><ele>167.0</ele><time>2026-05-05T15:54:12.997Z</time></trkpt><trkpt lat="43.772953698053165" lon="11.45880720214644"><ele>167.0</ele><time>2026-05-05T15:54:13.997Z</time></trkpt><trkpt lat="43.7729919804949" lon="11.458603996913972"><ele>167.0</ele><time>2026-05-05T15:54:14.997Z</time></trkpt><trkpt lat="43.773040424588345" lon="11.458424630453218"><ele>167.0</ele><time>2026-05-05T15:54:15.997Z</time></trkpt><trkpt lat="43.77306047226825" lon="11.458253946869055"><ele>166.0</ele><time>2026-05-05T15:54:16.997Z</time></trkpt><trkpt lat="43.7730339804946" lon="11.458082068619763"><ele>165.0</ele><time>2026-05-05T15:54:17.997Z</time></trkpt><trkpt lat="43.77296738045203" lon="11.457923082764216"><ele>164.0</ele><time>2026-05-05T15:54:18.997Z</time></trkpt><trkpt lat="43.77288877061583" lon="11.457774055514976"><ele>163.0</ele><time>2026-05-05T15:54:19.997Z</time></trkpt><trkpt lat="43.77281788489545" lon="11.457617497697097"><ele>163.0</ele><time>2026-05-05T15:54:20.997Z</time></trkpt><trkpt lat="43.77274814885521" lon="11.457456534788387"><ele>163.0</ele><time>2026-05-05T15:54:21.997Z</time></trkpt><trkpt lat="43.77268285811107" lon="11.45728737828045"><ele>163.0</ele><time>2026-05-05T15:54:23Z</time></trkpt><trkpt lat="43.772634930024495" lon="11.457103683915822"><ele>163.0</ele><time>2026-05-05T15:54:24Z</time></trkpt><trkpt lat="43.77261059258801" lon="11.456906943704027"><ele>154.5</ele><time>2026-05-05T15:54:25Z</time></trkpt><trkpt lat="43.772596268202236" lon="11.456707694791488"><ele>146.0</ele><time>2026-05-05T15:54:26Z</time></trkpt><trkpt lat="43.772577559635366" lon="11.456508248245779"><ele>137.5</ele><time>2026-05-05T15:54:27Z</time></trkpt><trkpt lat="43.772562178510924" lon="11.456313879650121"><ele>129.0</ele><time>2026-05-05T15:54:28Z</time></trkpt><trkpt lat="43.772546337811015" lon="11.45613387055941"><ele>128.5</ele><time>2026-05-05T15:54:29Z</time></trkpt><trkpt lat="43.772529135223536" lon="11.455965062185806"><ele>128.0</ele><time>2026-05-05T15:54:30Z</time></trkpt><trkpt lat="43.77251649398042" lon="11.455798363570093"><ele>127.5</ele><time>2026-05-05T15:54:31Z</time></trkpt><trkpt lat="43.77251848754412" lon="11.45562556879995"><ele>127.0</ele><time>2026-05-05T15:54:32Z</time></trkpt><trkpt lat="43.77255836378135" lon="11.455460986306608"><ele>124.25</ele><time>2026-05-05T15:54:33Z</time></trkpt><trkpt lat="43.77262386160781" lon="11.455312991551526"><ele>121.5</ele><time>2026-05-05T15:54:34Z</time></trkpt><trkpt lat="43.772696381446316" lon="11.455161807771162"><ele>118.75</ele><time>2026-05-05T15:54:35Z</time></trkpt><trkpt lat="43.77277160182075" lon="11.45500212242185"><ele>116.0</ele><time>2026-05-05T15:54:36Z</time></trkpt><trkpt lat="43.77285177971187" lon="11.45483624428945"><ele>118.75</ele><time>2026-05-05T15:54:37Z</time></trkpt><trkpt lat="43.772935549300584" lon="11.454669528579181"><ele>121.5</ele><time>2026-05-05T15:54:38Z</time></trkpt><trkpt lat="43.77300638048786" lon="11.454491933506763"><ele>124.25</ele><time>2026-05-05T15:54:39Z</time></trkpt><trkpt lat="43.77305275509612" lon="11.454296977698721"><ele>127.0</ele><time>2026-05-05T15:54:40Z</time></trkpt><trkpt lat="43.773087731151385" lon="11.454096453705763"><ele>127.0</ele><time>2026-05-05T15:54:41Z</time></trkpt><trkpt lat="43.77313095962408" lon="11.453895616777997"><ele>127.0</ele><time>2026-05-05T15:54:42Z</time></trkpt><trkpt lat="43.77317889396551" lon="11.453690362445633"><ele>127.0</ele><time>2026-05-05T15:54:43Z</time></trkpt><trkpt lat="43.773235307674796" lon="11.453486515934602"><ele>123.66666666666667</ele><time>2026-05-05T15:54:44Z</time></trkpt><trkpt lat="43.77329912587472" lon="11.453287625820822"><ele>120.33333333333334</ele><time>2026-05-05T15:54:45Z</time></trkpt><trkpt lat="43.773364958683565" lon="11.453101345609767"><ele>117.0</ele><time>2026-05-05T15:54:46Z</time></trkpt><trkpt lat="43.77343352458769" lon="11.452927071739765"><ele>114.0</ele><time>2026-05-05T15:54:47Z</time></trkpt><trkpt lat="43.77350539051902" lon="11.452768093991468"><ele>111.0</ele><time>2026-05-05T15:54:48Z</time></trkpt><trkpt lat="43.773584105904725" lon="11.452607145142565"><ele>108.0</ele><time>2026-05-05T15:54:49Z</time></trkpt><trkpt lat="43.7736561445354" lon="11.452453339586148"><ele>105.0</ele><time>2026-05-05T15:54:50Z</time></trkpt><trkpt lat="43.77371358749281" lon="11.452321687754782"><ele>106.6</ele><time>2026-05-05T15:54:50.999Z</time></trkpt><trkpt lat="43.773758419378254" lon="11.452202297643382"><ele>108.2</ele><time>2026-05-05T15:54:51.999Z</time></trkpt><trkpt lat="43.773802157662296" lon="11.452081940289888"><ele>109.80000000000001</ele><time>2026-05-05T15:54:52.999Z</time></trkpt><trkpt lat="43.77386011826193" lon="11.451985081248104"><ele>111.4</ele><time>2026-05-05T15:54:53.999Z</time></trkpt><trkpt lat="43.7738857991401" lon="11.451878403630717"><ele>113.0</ele><time>2026-05-05T15:54:54.999Z</time></trkpt><trkpt lat="43.773969005705645" lon="11.45172494161065"><ele>113.0</ele><time>2026-05-05T15:54:56.999Z</time></trkpt><trkpt lat="43.77390501175929" lon="11.451531526664857"><ele>113.00000000000001</ele><time>2026-05-05T15:54:58.999Z</time></trkpt><trkpt lat="43.773837262643596" lon="11.451459056578239"><ele>113.00000000000001</ele><time>2026-05-05T15:54:59.999Z</time></trkpt><trkpt lat="43.77376450784425" lon="11.4513805401143"><ele>113.0</ele><time>2026-05-05T15:55:00.999Z</time></trkpt><trkpt lat="43.773704945048415" lon="11.451263300108328"><ele>113.0</ele><time>2026-05-05T15:55:01.999Z</time></trkpt><trkpt lat="43.773683640092436" lon="11.451104834507632"><ele>110.5</ele><time>2026-05-05T15:55:02.999Z</time></trkpt><trkpt lat="43.773694675016664" lon="11.45093718674863"><ele>108.0</ele><time>2026-05-05T15:55:03.999Z</time></trkpt><trkpt lat="43.77370074025611" lon="11.45076598549237"><ele>105.5</ele><time>2026-05-05T15:55:04.999Z</time></trkpt><trkpt lat="43.77370033086092" lon="11.450604425925095"><ele>103.0</ele><time>2026-05-05T15:55:05.999Z</time></trkpt><trkpt lat="43.7736870828577" lon="11.450449428708765"><ele>102.0</ele><time>2026-05-05T15:55:06.999Z</time></trkpt><trkpt lat="43.77365356167714" lon="11.450291627321025"><ele>101.0</ele><time>2026-05-05T15:55:07.999Z</time></trkpt><trkpt lat="43.7736041515544" lon="11.45013646857809"><ele>100.0</ele><time>2026-05-05T15:55:08.999Z</time></trkpt><trkpt lat="43.77354125676739" lon="11.449989133116521"><ele>99.0</ele><time>2026-05-05T15:55:09.999Z</time></trkpt><trkpt lat="43.77346370241384" lon="11.44985447789232"><ele>97.25</ele><time>2026-05-05T15:55:10.999Z</time></trkpt><trkpt lat="43.773372471616206" lon="11.449732977150079"><ele>95.5</ele><time>2026-05-05T15:55:11.999Z</time></trkpt><trkpt lat="43.77326972953233" lon="11.449626417855116"><ele>93.75</ele><time>2026-05-05T15:55:12.999Z</time></trkpt><trkpt lat="43.77315281238209" lon="11.449542586920515"><ele>92.0</ele><time>2026-05-05T15:55:13.999Z</time></trkpt><trkpt lat="43.77302567002697" lon="11.44948328615631"><ele>92.0</ele><time>2026-05-05T15:55:14.999Z</time></trkpt><trkpt lat="43.77289352807981" lon="11.449436456126797"><ele>92.0</ele><time>2026-05-05T15:55:15.999Z</time></trkpt><trkpt lat="43.772760863707795" lon="11.4493863098772"><ele>92.0</ele><time>2026-05-05T15:55:16.999Z</time></trkpt><trkpt lat="43.77263724226656" lon="11.449309496856648"><ele>92.0</ele><time>2026-05-05T15:55:17.999Z</time></trkpt><trkpt lat="43.77252748088174" lon="11.449202109465537"><ele>91.0</ele><time>2026-05-05T15:55:18.999Z</time></trkpt><trkpt lat="43.77242751033994" lon="11.449074467013025"><ele>90.0</ele><time>2026-05-05T15:55:19.999Z</time></trkpt><trkpt lat="43.772331248438896" lon="11.448933701265803"><ele>89.0</ele><time>2026-05-05T15:55:20.999Z</time></trkpt><trkpt lat="43.772226037002746" lon="11.448834518113669"><ele>88.0</ele><time>2026-05-05T15:55:21.999Z</time></trkpt><trkpt lat="43.77215803534434" lon="11.448650255587104"><ele>87.25</ele><time>2026-05-05T15:55:22.999Z</time></trkpt><trkpt lat="43.77207916348688" lon="11.448503231082862"><ele>86.5</ele><time>2026-05-05T15:55:23.999Z</time></trkpt><trkpt lat="43.77200563373687" lon="11.448352379038843"><ele>85.75</ele><time>2026-05-05T15:55:24.999Z</time></trkpt><trkpt lat="43.7719356773186" lon="11.448195785864094"><ele>85.0</ele><time>2026-05-05T15:55:25.999Z</time></trkpt><trkpt lat="43.77186862005508" lon="11.448034125969281"><ele>84.75</ele><time>2026-05-05T15:55:26.999Z</time></trkpt><trkpt lat="43.771807261157086" lon="11.447869913582807"><ele>84.5</ele><time>2026-05-05T15:55:27.998Z</time></trkpt><trkpt lat="43.77175255818573" lon="11.447703564965215"><ele>84.25</ele><time>2026-05-05T15:55:28.998Z</time></trkpt><trkpt lat="43.77169904117522" lon="11.447526782130412"><ele>84.0</ele><time>2026-05-05T15:55:29.998Z</time></trkpt><trkpt lat="43.77164754393691" lon="11.447337825991196"><ele>84.0</ele><time>2026-05-05T15:55:30.998Z</time></trkpt><trkpt lat="43.77160464634846" lon="11.447139555782872"><ele>84.0</ele><time>2026-05-05T15:55:31.998Z</time></trkpt><trkpt lat="43.77156507336707" lon="11.44694043557869"><ele>84.0</ele><time>2026-05-05T15:55:32.998Z</time></trkpt><trkpt lat="43.77153487784609" lon="11.446735554902201"><ele>84.0</ele><time>2026-05-05T15:55:33.998Z</time></trkpt><trkpt lat="43.77150663943761" lon="11.446527006345669"><ele>84.0</ele><time>2026-05-05T15:55:34.998Z</time></trkpt><trkpt lat="43.77148186240898" lon="11.446313527694358"><ele>84.0</ele><time>2026-05-05T15:55:35.998Z</time></trkpt><trkpt lat="43.77146038600855" lon="11.446094509411777"><ele>83.66666666666667</ele><time>2026-05-05T15:55:36.998Z</time></trkpt><trkpt lat="43.77144105588361" lon="11.445873695551171"><ele>83.33333333333334</ele><time>2026-05-05T15:55:37.998Z</time></trkpt><trkpt lat="43.771421733643905" lon="11.445654827399862"><ele>83.0</ele><time>2026-05-05T15:55:38.998Z</time></trkpt><trkpt lat="43.77140239899353" lon="11.445436914480773"><ele>83.0</ele><time>2026-05-05T15:55:39.998Z</time></trkpt><trkpt lat="43.77138487651952" lon="11.44522055350506"><ele>83.0</ele><time>2026-05-05T15:55:40.998Z</time></trkpt><trkpt lat="43.77136895516373" lon="11.44500535284783"><ele>83.0</ele><time>2026-05-05T15:55:41.998Z</time></trkpt><trkpt lat="43.77135382615489" lon="11.444800258341395"><ele>83.0</ele><time>2026-05-05T15:55:42.998Z</time></trkpt><trkpt lat="43.77133957959191" lon="11.44461004223739"><ele>83.0</ele><time>2026-05-05T15:55:43.998Z</time></trkpt><trkpt lat="43.77132648286109" lon="11.444447035801131"><ele>83.0</ele><time>2026-05-05T15:55:44.998Z</time></trkpt><trkpt lat="43.7713127289589" lon="11.444283466304917"><ele>83.0</ele><time>2026-05-05T15:55:45.998Z</time></trkpt><trkpt lat="43.77129982724514" lon="11.444120985044313"><ele>83.0</ele><time>2026-05-05T15:55:46.998Z</time></trkpt><trkpt lat="43.77128920220024" lon="11.443958009745261"><ele>83.0</ele><time>2026-05-05T15:55:47.998Z</time></trkpt><trkpt lat="43.77127655365026" lon="11.44379254206002"><ele>83.0</ele><time>2026-05-05T15:55:48.998Z</time></trkpt><trkpt lat="43.7712634082755" lon="11.443626774600753"><ele>83.0</ele><time>2026-05-05T15:55:49.998Z</time></trkpt><trkpt lat="43.77125043023108" lon="11.443465647694062"><ele>82.5</ele><time>2026-05-05T15:55:50.998Z</time></trkpt><trkpt lat="43.77123615289567" lon="11.443303130496826"><ele>82.0</ele><time>2026-05-05T15:55:51.998Z</time></trkpt><trkpt lat="43.77122279030382" lon="11.443138562851095"><ele>81.5</ele><time>2026-05-05T15:55:52.998Z</time></trkpt><trkpt lat="43.77121106920945" lon="11.442969339311004"><ele>81.0</ele><time>2026-05-05T15:55:53.998Z</time></trkpt><trkpt lat="43.77119676089119" lon="11.442793760216468"><ele>80.75</ele><time>2026-05-05T15:55:54.998Z</time></trkpt><trkpt lat="43.771180268764574" lon="11.442615282200086"><ele>80.5</ele><time>2026-05-05T15:55:55.998Z</time></trkpt><trkpt lat="43.77115877137091" lon="11.442433946554264"><ele>80.25</ele><time>2026-05-05T15:55:56.998Z</time></trkpt><trkpt lat="43.7711330308668" lon="11.442248435814566"><ele>80.0</ele><time>2026-05-05T15:55:57.998Z</time></trkpt><trkpt lat="43.771104638257256" lon="11.44205984812858"><ele>80.0</ele><time>2026-05-05T15:55:58.998Z</time></trkpt><trkpt lat="43.77107203125618" lon="11.441869617173333"><ele>80.0</ele><time>2026-05-05T15:55:59.998Z</time></trkpt><trkpt lat="43.771031770948625" lon="11.441682658466071"><ele>80.0</ele><time>2026-05-05T15:56:00.998Z</time></trkpt><trkpt lat="43.77098563883697" lon="11.441495494376575"><ele>80.0</ele><time>2026-05-05T15:56:01.998Z</time></trkpt><trkpt lat="43.770935241372165" lon="11.441308369386864"><ele>80.0</ele><time>2026-05-05T15:56:02.998Z</time></trkpt><trkpt lat="43.7708794490131" lon="11.441121027075981"><ele>80.0</ele><time>2026-05-05T15:56:03.998Z</time></trkpt><trkpt lat="43.770820664708864" lon="11.440934702184833"><ele>80.0</ele><time>2026-05-05T15:56:04.998Z</time></trkpt><trkpt lat="43.77075990933648" lon="11.440749626639018"><ele>80.0</ele><time>2026-05-05T15:56:05.997Z</time></trkpt><trkpt lat="43.770698308427754" lon="11.440569087352777"><ele>80.5</ele><time>2026-05-05T15:56:06.997Z</time></trkpt><trkpt lat="43.7706364226947" lon="11.440393854106528"><ele>81.0</ele><time>2026-05-05T15:56:07.997Z</time></trkpt><trkpt lat="43.77057458619069" lon="11.440222147579325"><ele>81.5</ele><time>2026-05-05T15:56:08.997Z</time></trkpt><trkpt lat="43.770515173118994" lon="11.44005167269028"><ele>82.0</ele><time>2026-05-05T15:56:09.997Z</time></trkpt><trkpt lat="43.770455913594375" lon="11.43988140985995"><ele>82.0</ele><time>2026-05-05T15:56:10.997Z</time></trkpt><trkpt lat="43.77039520544271" lon="11.439709337764363"><ele>82.0</ele><time>2026-05-05T15:56:11.997Z</time></trkpt><trkpt lat="43.77033305140326" lon="11.439537443797203"><ele>82.0</ele><time>2026-05-05T15:56:12.997Z</time></trkpt><trkpt lat="43.770267041563116" lon="11.439359516211772"><ele>82.0</ele><time>2026-05-05T15:56:13.997Z</time></trkpt><trkpt lat="43.77019957275175" lon="11.439171536685626"><ele>82.33333333333333</ele><time>2026-05-05T15:56:14.997Z</time></trkpt><trkpt lat="43.77013071176937" lon="11.438976424706151"><ele>82.66666666666667</ele><time>2026-05-05T15:56:15.997Z</time></trkpt><trkpt lat="43.770060073104894" lon="11.438771073200414"><ele>83.0</ele><time>2026-05-05T15:56:16.997Z</time></trkpt><trkpt lat="43.76998760943165" lon="11.438556979467554"><ele>83.0</ele><time>2026-05-05T15:56:17.997Z</time></trkpt><trkpt lat="43.7699118778453" lon="11.438334773687808"><ele>83.0</ele><time>2026-05-05T15:56:18.997Z</time></trkpt><trkpt lat="43.769835785872" lon="11.438100721507425"><ele>83.0</ele><time>2026-05-05T15:56:19.997Z</time></trkpt><trkpt lat="43.769759359643274" lon="11.437856963949933"><ele>83.0</ele><time>2026-05-05T15:56:20.997Z</time></trkpt><trkpt lat="43.76968736881755" lon="11.437599814329708"><ele>83.0</ele><time>2026-05-05T15:56:21.997Z</time></trkpt><trkpt lat="43.76962057348203" lon="11.437330714968475"><ele>83.0</ele><time>2026-05-05T15:56:22.997Z</time></trkpt><trkpt lat="43.76955713628405" lon="11.437053348828568"><ele>83.0</ele><time>2026-05-05T15:56:23.997Z</time></trkpt><trkpt lat="43.7694981572872" lon="11.436767539838542"><ele>83.0</ele><time>2026-05-05T15:56:24.997Z</time></trkpt><trkpt lat="43.769451038902716" lon="11.436478061926332"><ele>83.0</ele><time>2026-05-05T15:56:25.997Z</time></trkpt><trkpt lat="43.76941297669609" lon="11.436190132507905"><ele>83.33333333333334</ele><time>2026-05-05T15:56:26.997Z</time></trkpt><trkpt lat="43.76938655954687" lon="11.435901257470661"><ele>83.66666666666667</ele><time>2026-05-05T15:56:28Z</time></trkpt><trkpt lat="43.76937066239403" lon="11.435616142114124"><ele>84.0</ele><time>2026-05-05T15:56:29Z</time></trkpt><trkpt lat="43.769361291541486" lon="11.435332030482408"><ele>84.0</ele><time>2026-05-05T15:56:30Z</time></trkpt><trkpt lat="43.769357647710336" lon="11.435050138921193"><ele>84.0</ele><time>2026-05-05T15:56:31Z</time></trkpt><trkpt lat="43.76936338457683" lon="11.43477481380271"><ele>84.0</ele><time>2026-05-05T15:56:32Z</time></trkpt><trkpt lat="43.76937795669134" lon="11.434498664748753"><ele>83.33333333333333</ele><time>2026-05-05T15:56:33Z</time></trkpt><trkpt lat="43.76939788816772" lon="11.434229551556653"><ele>82.66666666666666</ele><time>2026-05-05T15:56:34Z</time></trkpt><trkpt lat="43.769425310730185" lon="11.433967018390938"><ele>82.0</ele><time>2026-05-05T15:56:35Z</time></trkpt><trkpt lat="43.76946009252019" lon="11.433711774442939"><ele>82.0</ele><time>2026-05-05T15:56:36Z</time></trkpt><trkpt lat="43.76949982150314" lon="11.433463360626071"><ele>82.0</ele><time>2026-05-05T15:56:37Z</time></trkpt><trkpt lat="43.769546715094066" lon="11.433222350951404"><ele>82.0</ele><time>2026-05-05T15:56:38Z</time></trkpt><trkpt lat="43.76960059583507" lon="11.432989123538588"><ele>82.0</ele><time>2026-05-05T15:56:39Z</time></trkpt><trkpt lat="43.7696596526316" lon="11.432762290834983"><ele>82.0</ele><time>2026-05-05T15:56:40Z</time></trkpt><trkpt lat="43.76972097048624" lon="11.432542614808828"><ele>82.0</ele><time>2026-05-05T15:56:41Z</time></trkpt><trkpt lat="43.7697838938699" lon="11.432328047640818"><ele>81.33333333333333</ele><time>2026-05-05T15:56:42Z</time></trkpt><trkpt lat="43.7698505203204" lon="11.432119274784197"><ele>80.66666666666667</ele><time>2026-05-05T15:56:43Z</time></trkpt><trkpt lat="43.769919030035076" lon="11.431913632603461"><ele>80.0</ele><time>2026-05-05T15:56:44Z</time></trkpt><trkpt lat="43.76998864731599" lon="11.431709535691374"><ele>80.0</ele><time>2026-05-05T15:56:45Z</time></trkpt><trkpt lat="43.770059230605035" lon="11.431506285260078"><ele>80.0</ele><time>2026-05-05T15:56:46Z</time></trkpt><trkpt lat="43.77013181288999" lon="11.431301672386216"><ele>80.0</ele><time>2026-05-05T15:56:47Z</time></trkpt><trkpt lat="43.770206027456695" lon="11.431096385224935"><ele>80.66666666666667</ele><time>2026-05-05T15:56:48Z</time></trkpt><trkpt lat="43.770281366465184" lon="11.43088958020552"><ele>81.33333333333333</ele><time>2026-05-05T15:56:49Z</time></trkpt><trkpt lat="43.7703555686709" lon="11.430682711478374"><ele>82.0</ele><time>2026-05-05T15:56:50Z</time></trkpt><trkpt lat="43.77042877042538" lon="11.430474757370488"><ele>81.66666666666666</ele><time>2026-05-05T15:56:51Z</time></trkpt><trkpt lat="43.77050310158939" lon="11.43026745850455"><ele>81.33333333333333</ele><time>2026-05-05T15:56:52Z</time></trkpt><trkpt lat="43.770575951638705" lon="11.430063387712153"><ele>81.0</ele><time>2026-05-05T15:56:52.999Z</time></trkpt><trkpt lat="43.77064710777376" lon="11.429857777686463"><ele>81.0</ele><time>2026-05-05T15:56:53.999Z</time></trkpt><trkpt lat="43.770713795150506" lon="11.429649530639649"><ele>81.0</ele><time>2026-05-05T15:56:54.999Z</time></trkpt><trkpt lat="43.770778861069594" lon="11.429439136469481"><ele>81.0</ele><time>2026-05-05T15:56:55.999Z</time></trkpt><trkpt lat="43.77084129256572" lon="11.42922744212757"><ele>81.0</ele><time>2026-05-05T15:56:56.999Z</time></trkpt><trkpt lat="43.77090311908826" lon="11.429011735045096"><ele>81.0</ele><time>2026-05-05T15:56:57.999Z</time></trkpt><trkpt lat="43.77096249029686" lon="11.428790767756833"><ele>81.0</ele><time>2026-05-05T15:56:58.999Z</time></trkpt><trkpt lat="43.77101878041473" lon="11.428565467262498"><ele>81.33333333333333</ele><time>2026-05-05T15:56:59.999Z</time></trkpt><trkpt lat="43.771075402191286" lon="11.428333774326832"><ele>81.66666666666666</ele><time>2026-05-05T15:57:00.999Z</time></trkpt><trkpt lat="43.77113129706704" lon="11.428101227597498"><ele>82.0</ele><time>2026-05-05T15:57:01.999Z</time></trkpt><trkpt lat="43.771188712943456" lon="11.427867771966525"><ele>82.0</ele><time>2026-05-05T15:57:02.999Z</time></trkpt><trkpt lat="43.77124528615943" lon="11.427631079414274"><ele>82.0</ele><time>2026-05-05T15:57:03.999Z</time></trkpt><trkpt lat="43.77130189249877" lon="11.427393774240588"><ele>82.0</ele><time>2026-05-05T15:57:04.999Z</time></trkpt><trkpt lat="43.77135854781503" lon="11.427159761319123"><ele>81.66666666666666</ele><time>2026-05-05T15:57:05.999Z</time></trkpt><trkpt lat="43.77141375354625" lon="11.426925298858892"><ele>81.33333333333333</ele><time>2026-05-05T15:57:06.999Z</time></trkpt><trkpt lat="43.77147171580367" lon="11.426687307291715"><ele>81.0</ele><time>2026-05-05T15:57:07.999Z</time></trkpt><trkpt lat="43.77152802816209" lon="11.426451663012555"><ele>81.0</ele><time>2026-05-05T15:57:08.999Z</time></trkpt><trkpt lat="43.77158183736074" lon="11.426215355770385"><ele>81.0</ele><time>2026-05-05T15:57:09.999Z</time></trkpt><trkpt lat="43.77163590809675" lon="11.425979223731687"><ele>81.0</ele><time>2026-05-05T15:57:10.999Z</time></trkpt><trkpt lat="43.771689377017154" lon="11.425743303536516"><ele>81.0</ele><time>2026-05-05T15:57:11.999Z</time></trkpt><trkpt lat="43.771743246038575" lon="11.425507676358084"><ele>81.0</ele><time>2026-05-05T15:57:12.999Z</time></trkpt><trkpt lat="43.7717993083863" lon="11.425270580036496"><ele>81.0</ele><time>2026-05-05T15:57:13.999Z</time></trkpt><trkpt lat="43.77185654856122" lon="11.42503093104098"><ele>81.33333333333333</ele><time>2026-05-05T15:57:14.999Z</time></trkpt><trkpt lat="43.77191545978395" lon="11.424790461545232"><ele>81.66666666666666</ele><time>2026-05-05T15:57:15.999Z</time></trkpt><trkpt lat="43.77197365149667" lon="11.424550326168543"><ele>82.0</ele><time>2026-05-05T15:57:16.999Z</time></trkpt><trkpt lat="43.7720299746837" lon="11.42430606803655"><ele>82.0</ele><time>2026-05-05T15:57:17.999Z</time></trkpt><trkpt lat="43.77208551634189" lon="11.424058496816185"><ele>82.0</ele><time>2026-05-05T15:57:18.999Z</time></trkpt><trkpt lat="43.77214279483098" lon="11.42380828818248"><ele>82.0</ele><time>2026-05-05T15:57:19.999Z</time></trkpt><trkpt lat="43.77220082514927" lon="11.423558210348537"><ele>82.0</ele><time>2026-05-05T15:57:20.999Z</time></trkpt><trkpt lat="43.77226069913257" lon="11.423308667692776"><ele>82.0</ele><time>2026-05-05T15:57:21.999Z</time></trkpt><trkpt lat="43.77231960218392" lon="11.423058361039693"><ele>82.0</ele><time>2026-05-05T15:57:22.999Z</time></trkpt><trkpt lat="43.772376740031966" lon="11.422807262695592"><ele>81.66666666666666</ele><time>2026-05-05T15:57:23.999Z</time></trkpt><trkpt lat="43.772433611636586" lon="11.42255582127299"><ele>81.33333333333333</ele><time>2026-05-05T15:57:24.999Z</time></trkpt><trkpt lat="43.7724906316485" lon="11.422306282880536"><ele>81.0</ele><time>2026-05-05T15:57:25.999Z</time></trkpt><trkpt lat="43.77254928702555" lon="11.422058395591796"><ele>81.0</ele><time>2026-05-05T15:57:26.999Z</time></trkpt><trkpt lat="43.77261035178969" lon="11.421811955267032"><ele>81.0</ele><time>2026-05-05T15:57:27.999Z</time></trkpt><trkpt lat="43.77267178366392" lon="11.421564226372439"><ele>81.0</ele><time>2026-05-05T15:57:28.999Z</time></trkpt><trkpt lat="43.77273138552745" lon="11.42131319976877"><ele>81.0</ele><time>2026-05-05T15:57:29.999Z</time></trkpt><trkpt lat="43.7727923423024" lon="11.421058920208228"><ele>81.0</ele><time>2026-05-05T15:57:30.999Z</time></trkpt><trkpt lat="43.77285218724874" lon="11.420799742103501"><ele>81.0</ele><time>2026-05-05T15:57:31.999Z</time></trkpt><trkpt lat="43.772912529123445" lon="11.42054100015256"><ele>81.0</ele><time>2026-05-05T15:57:32.998Z</time></trkpt><trkpt lat="43.7729717804234" lon="11.420285580508237"><ele>81.0</ele><time>2026-05-05T15:57:33.998Z</time></trkpt><trkpt lat="43.77302976514783" lon="11.420034590136808"><ele>81.0</ele><time>2026-05-05T15:57:34.998Z</time></trkpt><trkpt lat="43.77308711581681" lon="11.41978827604001"><ele>81.0</ele><time>2026-05-05T15:57:35.998Z</time></trkpt><trkpt lat="43.77314388496654" lon="11.419545789623358"><ele>81.0</ele><time>2026-05-05T15:57:36.998Z</time></trkpt><trkpt lat="43.773199264165385" lon="11.419307492161572"><ele>81.0</ele><time>2026-05-05T15:57:37.998Z</time></trkpt><trkpt lat="43.773253500564415" lon="11.419076557468077"><ele>81.0</ele><time>2026-05-05T15:57:38.998Z</time></trkpt><trkpt lat="43.773307334632264" lon="11.418847935175766"><ele>81.0</ele><time>2026-05-05T15:57:39.998Z</time></trkpt><trkpt lat="43.7733598923373" lon="11.41862405111893"><ele>81.0</ele><time>2026-05-05T15:57:40.998Z</time></trkpt><trkpt lat="43.77341049711899" lon="11.418403314026742"><ele>81.0</ele><time>2026-05-05T15:57:41.998Z</time></trkpt><trkpt lat="43.77345756031946" lon="11.418191796162219"><ele>81.0</ele><time>2026-05-05T15:57:42.998Z</time></trkpt><trkpt lat="43.77350667592687" lon="11.417991863264534"><ele>81.0</ele><time>2026-05-05T15:57:43.998Z</time></trkpt><trkpt lat="43.77356258287423" lon="11.417801643631154"><ele>81.0</ele><time>2026-05-05T15:57:44.998Z</time></trkpt><trkpt lat="43.773627501203165" lon="11.417628583909258"><ele>81.0</ele><time>2026-05-05T15:57:45.998Z</time></trkpt><trkpt lat="43.773699708779056" lon="11.417478881411265"><ele>81.0</ele><time>2026-05-05T15:57:46.998Z</time></trkpt><trkpt lat="43.773775920767626" lon="11.417350896864972"><ele>81.0</ele><time>2026-05-05T15:57:47.998Z</time></trkpt><trkpt lat="43.77384882699905" lon="11.417249069729806"><ele>81.0</ele><time>2026-05-05T15:57:48.998Z</time></trkpt><trkpt lat="43.77391335994408" lon="11.417171867507854"><ele>81.0</ele><time>2026-05-05T15:57:49.998Z</time></trkpt><trkpt lat="43.77397100313905" lon="11.417112372702068"><ele>81.0</ele><time>2026-05-05T15:57:50.998Z</time></trkpt><trkpt lat="43.774067273977025" lon="11.417047529116932"><ele>81.0</ele><time>2026-05-05T15:57:52.998Z</time></trkpt><trkpt lat="43.77413547533957" lon="11.417032108492643"><ele>81.0</ele><time>2026-05-05T15:57:55.998Z</time></trkpt><trkpt lat="43.77420896995068" lon="11.417035811320261"><ele>81.0</ele><time>2026-05-05T15:57:57.998Z</time></trkpt><trkpt lat="43.77432459511569" lon="11.41708366218078"><ele>81.0</ele><time>2026-05-05T15:57:59.998Z</time></trkpt><trkpt lat="43.77435106193764" lon="11.417200704477715"><ele>81.0</ele><time>2026-05-05T15:58:00.998Z</time></trkpt><trkpt lat="43.77436020548643" lon="11.417295850699423"><ele>81.0</ele><time>2026-05-05T15:58:01.998Z</time></trkpt><trkpt lat="43.77435838396928" lon="11.417396006915624"><ele>81.0</ele><time>2026-05-05T15:58:02.998Z</time></trkpt><trkpt lat="43.77434061945455" lon="11.417495872917947"><ele>81.0</ele><time>2026-05-05T15:58:03.998Z</time></trkpt><trkpt lat="43.77430532360457" lon="11.417584025662846"><ele>81.0</ele><time>2026-05-05T15:58:04.998Z</time></trkpt><trkpt lat="43.774274010084" lon="11.417670356870559"><ele>81.0</ele><time>2026-05-05T15:58:05.998Z</time></trkpt><trkpt lat="43.774263091057584" lon="11.41776082357817"><ele>81.0</ele><time>2026-05-05T15:58:06.998Z</time></trkpt><trkpt lat="43.77428208142026" lon="11.417860903443758"><ele>81.0</ele><time>2026-05-05T15:58:07.998Z</time></trkpt><trkpt lat="43.77433720149416" lon="11.417920363041453"><ele>81.0</ele><time>2026-05-05T15:58:08.998Z</time></trkpt><trkpt lat="43.77441245708083" lon="11.417947685819193"><ele>81.0</ele><time>2026-05-05T15:58:09.998Z</time></trkpt><trkpt lat="43.77449340033973" lon="11.417967968912238"><ele>81.0</ele><time>2026-05-05T15:58:10.998Z</time></trkpt><trkpt lat="43.77457361067751" lon="11.41802132592118"><ele>81.0</ele><time>2026-05-05T15:58:11.997Z</time></trkpt><trkpt lat="43.77465714709477" lon="11.418078959648522"><ele>81.33333333333333</ele><time>2026-05-05T15:58:12.997Z</time></trkpt><trkpt lat="43.77474084363732" lon="11.418135667645496"><ele>81.66666666666667</ele><time>2026-05-05T15:58:13.997Z</time></trkpt><trkpt lat="43.77482248186886" lon="11.418194812397399"><ele>82.0</ele><time>2026-05-05T15:58:14.997Z</time></trkpt><trkpt lat="43.774893087273476" lon="11.418248417781063"><ele>82.33333333333334</ele><time>2026-05-05T15:58:15.997Z</time></trkpt><trkpt lat="43.77495716524657" lon="11.418311765775172"><ele>82.66666666666667</ele><time>2026-05-05T15:58:16.997Z</time></trkpt><trkpt lat="43.775020803363496" lon="11.418394245982144"><ele>83.0</ele><time>2026-05-05T15:58:17.997Z</time></trkpt><trkpt lat="43.77508252994945" lon="11.418491677415197"><ele>83.0</ele><time>2026-05-05T15:58:18.997Z</time></trkpt><trkpt lat="43.775142719726894" lon="11.418601780791658"><ele>83.0</ele><time>2026-05-05T15:58:19.997Z</time></trkpt><trkpt lat="43.77521366048235" lon="11.418712981970952"><ele>83.0</ele><time>2026-05-05T15:58:20.997Z</time></trkpt><trkpt lat="43.77528992858321" lon="11.418822204132542"><ele>83.0</ele><time>2026-05-05T15:58:21.997Z</time></trkpt><trkpt lat="43.775371827184735" lon="11.418921131764687"><ele>83.0</ele><time>2026-05-05T15:58:22.997Z</time></trkpt><trkpt lat="43.775467963955656" lon="11.419004010221805"><ele>84.25</ele><time>2026-05-05T15:58:23.997Z</time></trkpt><trkpt lat="43.77557500543123" lon="11.419066828798348"><ele>85.5</ele><time>2026-05-05T15:58:24.997Z</time></trkpt><trkpt lat="43.77569574678237" lon="11.419093838105777"><ele>86.75</ele><time>2026-05-05T15:58:25.997Z</time></trkpt><trkpt lat="43.77582551301336" lon="11.419093308802426"><ele>88.0</ele><time>2026-05-05T15:58:26.997Z</time></trkpt><trkpt lat="43.775956014035714" lon="11.41908872474497"><ele>89.0</ele><time>2026-05-05T15:58:27.997Z</time></trkpt><trkpt lat="43.77609070541001" lon="11.419085606830881"><ele>90.0</ele><time>2026-05-05T15:58:28.997Z</time></trkpt><trkpt lat="43.77622583688895" lon="11.419091227183975"><ele>91.0</ele><time>2026-05-05T15:58:29.997Z</time></trkpt><trkpt lat="43.776353786878445" lon="11.419086653537953"><ele>92.0</ele><time>2026-05-05T15:58:30.997Z</time></trkpt><trkpt lat="43.77648155039537" lon="11.419083854935929"><ele>92.0</ele><time>2026-05-05T15:58:31.997Z</time></trkpt><trkpt lat="43.77660991659651" lon="11.419087569991078"><ele>92.0</ele><time>2026-05-05T15:58:33Z</time></trkpt><trkpt lat="43.776732572444196" lon="11.419113210679178"><ele>92.0</ele><time>2026-05-05T15:58:34Z</time></trkpt><trkpt lat="43.77684374417817" lon="11.419178172933535"><ele>92.0</ele><time>2026-05-05T15:58:35Z</time></trkpt><trkpt lat="43.776935935856834" lon="11.419281578011194"><ele>93.0</ele><time>2026-05-05T15:58:36Z</time></trkpt><trkpt lat="43.77701185129248" lon="11.419412827128022"><ele>94.0</ele><time>2026-05-05T15:58:37Z</time></trkpt><trkpt lat="43.77706586783277" lon="11.419556908586785"><ele>95.0</ele><time>2026-05-05T15:58:38Z</time></trkpt><trkpt lat="43.7770927818182" lon="11.419705036819545"><ele>96.0</ele><time>2026-05-05T15:58:39Z</time></trkpt><trkpt lat="43.77709586810456" lon="11.419853990595724"><ele>96.0</ele><time>2026-05-05T15:58:40Z</time></trkpt><trkpt lat="43.77707995531804" lon="11.419995647833412"><ele>96.0</ele><time>2026-05-05T15:58:41Z</time></trkpt><trkpt lat="43.77704284292376" lon="11.42012394815395"><ele>96.0</ele><time>2026-05-05T15:58:42Z</time></trkpt><trkpt lat="43.77698811667132" lon="11.420240504230732"><ele>96.0</ele><time>2026-05-05T15:58:43Z</time></trkpt><trkpt lat="43.77693491646153" lon="11.420362536366623"><ele>96.0</ele><time>2026-05-05T15:58:44Z</time></trkpt><trkpt lat="43.77688095928461" lon="11.420492092947127"><ele>94.75</ele><time>2026-05-05T15:58:45Z</time></trkpt><trkpt lat="43.776824756655486" lon="11.420620924779591"><ele>93.5</ele><time>2026-05-05T15:58:46Z</time></trkpt><trkpt lat="43.77676322803793" lon="11.420752283205537"><ele>92.25</ele><time>2026-05-05T15:58:47Z</time></trkpt><trkpt lat="43.77670080487225" lon="11.42088950964541"><ele>91.0</ele><time>2026-05-05T15:58:48Z</time></trkpt><trkpt lat="43.776642968483195" lon="11.421034897288967"><ele>91.0</ele><time>2026-05-05T15:58:49Z</time></trkpt><trkpt lat="43.77659726798206" lon="11.421193522978523"><ele>91.0</ele><time>2026-05-05T15:58:50Z</time></trkpt><trkpt lat="43.776576664494726" lon="11.421362748933312"><ele>91.0</ele><time>2026-05-05T15:58:51Z</time></trkpt><trkpt lat="43.77657245131239" lon="11.421533427658451"><ele>91.0</ele><time>2026-05-05T15:58:52Z</time></trkpt><trkpt lat="43.77658131727928" lon="11.421697655292617"><ele>90.8</ele><time>2026-05-05T15:58:53Z</time></trkpt><trkpt lat="43.77658686889254" lon="11.421854999864259"><ele>90.6</ele><time>2026-05-05T15:58:54Z</time></trkpt><trkpt lat="43.776590439406945" lon="11.422005715669817"><ele>90.4</ele><time>2026-05-05T15:58:55Z</time></trkpt><trkpt lat="43.776593232607844" lon="11.422139766473357"><ele>90.2</ele><time>2026-05-05T15:58:55.999Z</time></trkpt><trkpt lat="43.7765963548951" lon="11.422267299167045"><ele>90.0</ele><time>2026-05-05T15:58:56.999Z</time></trkpt><trkpt lat="43.776582841370924" lon="11.422394498494045"><ele>90.4</ele><time>2026-05-05T15:58:57.999Z</time></trkpt><trkpt lat="43.77659574640913" lon="11.422516592592924"><ele>90.8</ele><time>2026-05-05T15:58:58.999Z</time></trkpt><trkpt lat="43.77659437460605" lon="11.422636499522028"><ele>91.19999999999999</ele><time>2026-05-05T15:58:59.999Z</time></trkpt><trkpt lat="43.77659748410397" lon="11.422757771720468"><ele>91.6</ele><time>2026-05-05T15:59:00.999Z</time></trkpt><trkpt lat="43.77659559314276" lon="11.4228879451341"><ele>92.0</ele><time>2026-05-05T15:59:01.999Z</time></trkpt><trkpt lat="43.77659220305155" lon="11.42302602767158"><ele>92.0</ele><time>2026-05-05T15:59:02.999Z</time></trkpt><trkpt lat="43.77658961850764" lon="11.42317460203509"><ele>92.0</ele><time>2026-05-05T15:59:03.999Z</time></trkpt><trkpt lat="43.7765888544911" lon="11.423328874993372"><ele>92.0</ele><time>2026-05-05T15:59:04.999Z</time></trkpt><trkpt lat="43.77658579202544" lon="11.423484857506054"><ele>92.0</ele><time>2026-05-05T15:59:05.999Z</time></trkpt><trkpt lat="43.776575405986584" lon="11.423637563792699"><ele>92.0</ele><time>2026-05-05T15:59:06.999Z</time></trkpt><trkpt lat="43.776557323338196" lon="11.423791825727774"><ele>92.19999999999999</ele><time>2026-05-05T15:59:07.999Z</time></trkpt><trkpt lat="43.77653723654737" lon="11.423943416933433"><ele>92.4</ele><time>2026-05-05T15:59:08.999Z</time></trkpt><trkpt lat="43.77651734494554" lon="11.42409131790264"><ele>92.6</ele><time>2026-05-05T15:59:09.999Z</time></trkpt><trkpt lat="43.77649769335453" lon="11.424234972573913"><ele>92.80000000000001</ele><time>2026-05-05T15:59:10.999Z</time></trkpt><trkpt lat="43.776476499642186" lon="11.424378011547075"><ele>93.0</ele><time>2026-05-05T15:59:11.999Z</time></trkpt><trkpt lat="43.77645590128696" lon="11.42452497231297"><ele>93.4</ele><time>2026-05-05T15:59:12.999Z</time></trkpt><trkpt lat="43.77641742785479" lon="11.424671876976317"><ele>93.80000000000001</ele><time>2026-05-05T15:59:13.999Z</time></trkpt><trkpt lat="43.77641017692066" lon="11.42482943955547"><ele>94.2</ele><time>2026-05-05T15:59:14.999Z</time></trkpt><trkpt lat="43.77638500529071" lon="11.424975201524182"><ele>94.6</ele><time>2026-05-05T15:59:15.999Z</time></trkpt><trkpt lat="43.77635560179251" lon="11.425119218331321"><ele>95.0</ele><time>2026-05-05T15:59:16.999Z</time></trkpt><trkpt lat="43.776305254460766" lon="11.425254561664866"><ele>95.0</ele><time>2026-05-05T15:59:17.999Z</time></trkpt><trkpt lat="43.77627060729745" lon="11.425404896752356"><ele>95.0</ele><time>2026-05-05T15:59:18.999Z</time></trkpt><trkpt lat="43.776219377202786" lon="11.42555198634892"><ele>95.0</ele><time>2026-05-05T15:59:19.999Z</time></trkpt><trkpt lat="43.77617959189879" lon="11.425711507457633"><ele>95.0</ele><time>2026-05-05T15:59:20.999Z</time></trkpt><trkpt lat="43.7761496649633" lon="11.425882593471151"><ele>96.75</ele><time>2026-05-05T15:59:21.999Z</time></trkpt><trkpt lat="43.77612441221874" lon="11.426061423946573"><ele>98.5</ele><time>2026-05-05T15:59:22.999Z</time></trkpt><trkpt lat="43.77609663185219" lon="11.426242227188412"><ele>100.25</ele><time>2026-05-05T15:59:23.999Z</time></trkpt><trkpt lat="43.77606998400914" lon="11.42641950469368"><ele>102.0</ele><time>2026-05-05T15:59:24.999Z</time></trkpt><trkpt lat="43.77604361603196" lon="11.426594554558303"><ele>99.75</ele><time>2026-05-05T15:59:25.999Z</time></trkpt><trkpt lat="43.776018663273646" lon="11.426767799380933"><ele>97.5</ele><time>2026-05-05T15:59:26.999Z</time></trkpt><trkpt lat="43.775994183925576" lon="11.426940362717092"><ele>95.25</ele><time>2026-05-05T15:59:27.999Z</time></trkpt><trkpt lat="43.775970660955444" lon="11.42711647897842"><ele>93.0</ele><time>2026-05-05T15:59:28.999Z</time></trkpt><trkpt lat="43.775949507965095" lon="11.427294003996613"><ele>92.75</ele><time>2026-05-05T15:59:29.999Z</time></trkpt><trkpt lat="43.77592886740987" lon="11.427467649857633"><ele>92.5</ele><time>2026-05-05T15:59:30.999Z</time></trkpt><trkpt lat="43.77590971691068" lon="11.427640161078427"><ele>92.25</ele><time>2026-05-05T15:59:31.999Z</time></trkpt><trkpt lat="43.77589149404106" lon="11.427809504922811"><ele>92.0</ele><time>2026-05-05T15:59:32.999Z</time></trkpt><trkpt lat="43.77586441156642" lon="11.427977502483847"><ele>92.75</ele><time>2026-05-05T15:59:33.999Z</time></trkpt><trkpt lat="43.77583042923426" lon="11.428148876427993"><ele>93.5</ele><time>2026-05-05T15:59:34.999Z</time></trkpt><trkpt lat="43.775785580470526" lon="11.428322100015201"><ele>94.25</ele><time>2026-05-05T15:59:35.999Z</time></trkpt><trkpt lat="43.775736889945655" lon="11.428496037369387"><ele>95.0</ele><time>2026-05-05T15:59:36.999Z</time></trkpt><trkpt lat="43.77568899096515" lon="11.428671190169666"><ele>96.0</ele><time>2026-05-05T15:59:37.998Z</time></trkpt><trkpt lat="43.77564146564046" lon="11.428843859452682"><ele>97.0</ele><time>2026-05-05T15:59:38.998Z</time></trkpt><trkpt lat="43.77559316036486" lon="11.429013200818002"><ele>98.0</ele><time>2026-05-05T15:59:39.998Z</time></trkpt><trkpt lat="43.77555141509514" lon="11.429179589964408"><ele>99.0</ele><time>2026-05-05T15:59:40.998Z</time></trkpt><trkpt lat="43.77551621790673" lon="11.429347187995884"><ele>99.0</ele><time>2026-05-05T15:59:41.998Z</time></trkpt><trkpt lat="43.77548361020418" lon="11.429510929227213"><ele>99.0</ele><time>2026-05-05T15:59:42.998Z</time></trkpt><trkpt lat="43.77545566457373" lon="11.429675844774074"><ele>99.0</ele><time>2026-05-05T15:59:43.998Z</time></trkpt><trkpt lat="43.775433409983705" lon="11.429842226426564"><ele>99.0</ele><time>2026-05-05T15:59:44.998Z</time></trkpt><trkpt lat="43.77541274864594" lon="11.430010919663538"><ele>99.25</ele><time>2026-05-05T15:59:45.998Z</time></trkpt><trkpt lat="43.77539191098642" lon="11.430181559563787"><ele>99.5</ele><time>2026-05-05T15:59:46.998Z</time></trkpt><trkpt lat="43.77537082988879" lon="11.430354323832347"><ele>99.75</ele><time>2026-05-05T15:59:47.998Z</time></trkpt><trkpt lat="43.77535193461441" lon="11.430530581652011"><ele>100.0</ele><time>2026-05-05T15:59:48.998Z</time></trkpt><trkpt lat="43.775332928331125" lon="11.430701800229802"><ele>100.75</ele><time>2026-05-05T15:59:49.998Z</time></trkpt><trkpt lat="43.77530609145856" lon="11.430861140925156"><ele>101.5</ele><time>2026-05-05T15:59:50.998Z</time></trkpt><trkpt lat="43.77528896419618" lon="11.431017931705666"><ele>102.25</ele><time>2026-05-05T15:59:51.998Z</time></trkpt><trkpt lat="43.775272329295134" lon="11.431174320355519"><ele>103.0</ele><time>2026-05-05T15:59:52.998Z</time></trkpt><trkpt lat="43.77525475196738" lon="11.43132306502455"><ele>103.2</ele><time>2026-05-05T15:59:53.998Z</time></trkpt><trkpt lat="43.77523629744344" lon="11.431472449588126"><ele>103.4</ele><time>2026-05-05T15:59:54.998Z</time></trkpt><trkpt lat="43.775220448224815" lon="11.431625077199044"><ele>103.60000000000001</ele><time>2026-05-05T15:59:55.998Z</time></trkpt><trkpt lat="43.77520720076461" lon="11.431763611901667"><ele>103.80000000000001</ele><time>2026-05-05T15:59:56.998Z</time></trkpt><trkpt lat="43.775195713818036" lon="11.431880509876754"><ele>104.0</ele><time>2026-05-05T15:59:57.998Z</time></trkpt><trkpt lat="43.77518717508675" lon="11.431980970854147"><ele>103.85714285714285</ele><time>2026-05-05T15:59:58.998Z</time></trkpt><trkpt lat="43.775177900850416" lon="11.432080432818854"><ele>103.71428571428572</ele><time>2026-05-05T15:59:59.998Z</time></trkpt><trkpt lat="43.77516842342663" lon="11.432178997456663"><ele>103.57142857142857</ele><time>2026-05-05T16:00:00.998Z</time></trkpt><trkpt lat="43.77515812106443" lon="11.432277124761146"><ele>103.42857142857142</ele><time>2026-05-05T16:00:01.998Z</time></trkpt><trkpt lat="43.77514913261354" lon="11.43237555033197"><ele>103.28571428571428</ele><time>2026-05-05T16:00:02.998Z</time></trkpt><trkpt lat="43.77514813580014" lon="11.432469913653515"><ele>103.14285714285714</ele><time>2026-05-05T16:00:03.998Z</time></trkpt><trkpt lat="43.77516371934481" lon="11.432554916607675"><ele>103.0</ele><time>2026-05-05T16:00:04.998Z</time></trkpt><trkpt lat="43.77519407068341" lon="11.432632308484568"><ele>103.0</ele><time>2026-05-05T16:00:05.998Z</time></trkpt><trkpt lat="43.775235827574306" lon="11.432779262451788"><ele>103.0</ele><time>2026-05-05T16:00:07.998Z</time></trkpt><trkpt lat="43.77523233612572" lon="11.432892635975435"><ele>103.0</ele><time>2026-05-05T16:00:09.998Z</time></trkpt><trkpt lat="43.77524978527559" lon="11.43299786968817"><ele>103.0</ele><time>2026-05-05T16:00:34.997Z</time></trkpt><trkpt lat="43.77525611802986" lon="11.433139404300329"><ele>103.0</ele><time>2026-05-05T16:00:36.997Z</time></trkpt><trkpt lat="43.77526364489707" lon="11.43324672564966"><ele>102.33333333333334</ele><time>2026-05-05T16:00:37.997Z</time></trkpt><trkpt lat="43.775253857808" lon="11.43335368448411"><ele>101.66666666666667</ele><time>2026-05-05T16:00:39Z</time></trkpt><trkpt lat="43.775259570912475" lon="11.433471410050728"><ele>101.0</ele><time>2026-05-05T16:00:40Z</time></trkpt><trkpt lat="43.77526491234576" lon="11.433581475850783"><ele>100.33333333333334</ele><time>2026-05-05T16:00:41Z</time></trkpt><trkpt lat="43.775269927751154" lon="11.433684824250783"><ele>99.66666666666667</ele><time>2026-05-05T16:00:42Z</time></trkpt><trkpt lat="43.77527451282235" lon="11.433779308171216"><ele>99.0</ele><time>2026-05-05T16:00:43Z</time></trkpt><trkpt lat="43.77527858150832" lon="11.43386921973262"><ele>99.0</ele><time>2026-05-05T16:00:44Z</time></trkpt><trkpt lat="43.77530375120777" lon="11.433950662123374"><ele>99.0</ele><time>2026-05-05T16:00:45Z</time></trkpt><trkpt lat="43.77530955834679" lon="11.434087487132189"><ele>99.0</ele><time>2026-05-05T16:00:47Z</time></trkpt><trkpt lat="43.77531858891437" lon="11.434238267547626"><ele>99.0</ele><time>2026-05-05T16:00:49Z</time></trkpt><trkpt lat="43.77532511946285" lon="11.434387834519782"><ele>99.0</ele><time>2026-05-05T16:00:51Z</time></trkpt><trkpt lat="43.77533347481028" lon="11.434545880630298"><ele>99.6</ele><time>2026-05-05T16:00:53Z</time></trkpt><trkpt lat="43.77534051609562" lon="11.434690456223079"><ele>100.2</ele><time>2026-05-05T16:00:55Z</time></trkpt><trkpt lat="43.77534882221509" lon="11.434830658760616"><ele>100.8</ele><time>2026-05-05T16:00:57Z</time></trkpt><trkpt lat="43.7753546057183" lon="11.434992681521459"><ele>101.39999999999999</ele><time>2026-05-05T16:00:59Z</time></trkpt><trkpt lat="43.77535549750661" lon="11.435087861286757"><ele>102.0</ele><time>2026-05-05T16:00:59.999Z</time></trkpt><trkpt lat="43.77535544295469" lon="11.435187516051872"><ele>102.0</ele><time>2026-05-05T16:01:00.999Z</time></trkpt><trkpt lat="43.77536152764644" lon="11.435288348904757"><ele>102.0</ele><time>2026-05-05T16:01:01.999Z</time></trkpt><trkpt lat="43.775367027590065" lon="11.435388499932346"><ele>102.0</ele><time>2026-05-05T16:01:02.999Z</time></trkpt><trkpt lat="43.77537422726429" lon="11.435486689636553"><ele>102.0</ele><time>2026-05-05T16:01:03.999Z</time></trkpt><trkpt lat="43.775382692376546" lon="11.435581672869695"><ele>102.0</ele><time>2026-05-05T16:01:04.999Z</time></trkpt><trkpt lat="43.775388800104714" lon="11.435675707720954"><ele>102.0</ele><time>2026-05-05T16:01:05.999Z</time></trkpt><trkpt lat="43.775397789885986" lon="11.435808412899085"><ele>102.0</ele><time>2026-05-05T16:01:07.999Z</time></trkpt><trkpt lat="43.77540638124014" lon="11.435931162124088"><ele>102.0</ele><time>2026-05-05T16:01:15.999Z</time></trkpt><trkpt lat="43.77547598741345" lon="11.436001271546491"><ele>102.0</ele><time>2026-05-05T16:01:17.999Z</time></trkpt><trkpt lat="43.77558681442211" lon="11.435987862621255"><ele>102.0</ele><time>2026-05-05T16:01:19.999Z</time></trkpt><trkpt lat="43.77565042769208" lon="11.435978028983282"><ele>102.0</ele><time>2026-05-05T16:01:20.999Z</time></trkpt><trkpt lat="43.77571425194631" lon="11.435964482519536"><ele>102.0</ele><time>2026-05-05T16:01:21.999Z</time></trkpt><trkpt lat="43.77577953805878" lon="11.435957131105837"><ele>102.0</ele><time>2026-05-05T16:01:22.999Z</time></trkpt><trkpt lat="43.775885529579654" lon="11.4359184470467"><ele>102.0</ele><time>2026-05-05T16:01:24.999Z</time></trkpt><trkpt lat="43.77593464398385" lon="11.43576954685653"><ele>102.0</ele><time>2026-05-05T16:01:26.999Z</time></trkpt><trkpt lat="43.77597788296301" lon="11.435661926985345"><ele>102.0</ele><time>2026-05-05T16:01:28.999Z</time></trkpt><trkpt lat="43.77604632122497" lon="11.435869501591892"><ele>104.19999999999999</ele><time>2026-05-05T16:01:30.999Z</time></trkpt><trkpt lat="43.776055513469274" lon="11.436020054517675"><ele>106.4</ele><time>2026-05-05T16:01:32.999Z</time></trkpt><trkpt lat="43.776077470647735" lon="11.43613968201625"><ele>108.60000000000001</ele><time>2026-05-05T16:01:39.999Z</time></trkpt><trkpt lat="43.776081694512655" lon="11.436289091606481"><ele>110.80000000000001</ele><time>2026-05-05T16:01:41.998Z</time></trkpt><trkpt lat="43.77608833377289" lon="11.436383141765031"><ele>113.0</ele><time>2026-05-05T16:01:42.998Z</time></trkpt><trkpt lat="43.77609247946077" lon="11.436564338424983"><ele>114.16666666666666</ele><time>2026-05-05T16:01:44.998Z</time></trkpt><trkpt lat="43.776098754066396" lon="11.436672050012392"><ele>115.33333333333333</ele><time>2026-05-05T16:01:45.998Z</time></trkpt><trkpt lat="43.77610682570937" lon="11.436788928476517"><ele>116.5</ele><time>2026-05-05T16:01:46.998Z</time></trkpt><trkpt lat="43.77609866086192" lon="11.436905065663735"><ele>117.66666666666666</ele><time>2026-05-05T16:01:47.998Z</time></trkpt><trkpt lat="43.77610470748374" lon="11.437030093851563"><ele>118.83333333333333</ele><time>2026-05-05T16:01:48.998Z</time></trkpt><trkpt lat="43.77611175212857" lon="11.437166750471022"><ele>120.0</ele><time>2026-05-05T16:01:49.998Z</time></trkpt><trkpt lat="43.77613590116443" lon="11.437315584928998"><ele>120.0</ele><time>2026-05-05T16:01:50.998Z</time></trkpt><trkpt lat="43.77612828789876" lon="11.437472867272167"><ele>120.0</ele><time>2026-05-05T16:01:51.998Z</time></trkpt><trkpt lat="43.77615178099582" lon="11.437620000109636"><ele>120.0</ele><time>2026-05-05T16:01:52.998Z</time></trkpt><trkpt lat="43.77616071200008" lon="11.437770641447592"><ele>120.0</ele><time>2026-05-05T16:01:53.998Z</time></trkpt><trkpt lat="43.776153157749405" lon="11.437924678727814"><ele>120.0</ele><time>2026-05-05T16:01:54.998Z</time></trkpt><trkpt lat="43.77616143231214" lon="11.438074533692395"><ele>120.0</ele><time>2026-05-05T16:01:55.998Z</time></trkpt><trkpt lat="43.77618448232219" lon="11.438210969595042"><ele>120.0</ele><time>2026-05-05T16:01:56.998Z</time></trkpt><trkpt lat="43.7761875045758" lon="11.4383408113534"><ele>120.0</ele><time>2026-05-05T16:01:57.998Z</time></trkpt><trkpt lat="43.77619486662732" lon="11.438459469125444"><ele>120.0</ele><time>2026-05-05T16:01:58.998Z</time></trkpt><trkpt lat="43.776187548948435" lon="11.438562918725806"><ele>120.0</ele><time>2026-05-05T16:01:59.998Z</time></trkpt><trkpt lat="43.77620703668071" lon="11.438647434739092"><ele>120.0</ele><time>2026-05-05T16:02:00.998Z</time></trkpt><trkpt lat="43.776203936348374" lon="11.438785296601194"><ele>120.33333333333333</ele><time>2026-05-05T16:02:02.998Z</time></trkpt><trkpt lat="43.7762120558388" lon="11.438920871873309"><ele>120.66666666666666</ele><time>2026-05-05T16:02:04.998Z</time></trkpt><trkpt lat="43.7762163119636" lon="11.439021785878703"><ele>121.0</ele><time>2026-05-05T16:02:06.998Z</time></trkpt><trkpt lat="43.77622194647224" lon="11.439123174711918"><ele>121.33333333333333</ele><time>2026-05-05T16:02:10.998Z</time></trkpt><trkpt lat="43.77623068746888" lon="11.439215388726296"><ele>121.66666666666666</ele><time>2026-05-05T16:02:28.997Z</time></trkpt><trkpt lat="43.776298933835896" lon="11.439273963681707"><ele>122.0</ele><time>2026-05-05T16:02:30.997Z</time></trkpt><trkpt lat="43.77639786531534" lon="11.439293247471594"><ele>122.0</ele><time>2026-05-05T16:02:32.997Z</time></trkpt><trkpt lat="43.776502874336245" lon="11.439322961892564"><ele>121.99999999999999</ele><time>2026-05-05T16:02:34.997Z</time></trkpt><trkpt lat="43.776618460092834" lon="11.439354748670034"><ele>121.99999999999999</ele><time>2026-05-05T16:02:36.997Z</time></trkpt><trkpt lat="43.77672151978889" lon="11.439386524555232"><ele>122.0</ele><time>2026-05-05T16:02:38.997Z</time></trkpt><trkpt lat="43.77678767444896" lon="11.439405503247329"><ele>122.0</ele><time>2026-05-05T16:02:40.997Z</time></trkpt><trkpt lat="43.77685027985457" lon="11.439420607616697"><ele>124.33333333333333</ele><time>2026-05-05T16:02:45Z</time></trkpt><trkpt lat="43.77692838391524" lon="11.439453746561272"><ele>126.66666666666666</ele><time>2026-05-05T16:02:57Z</time></trkpt><trkpt lat="43.777027910628405" lon="11.439468067774062"><ele>129.0</ele><time>2026-05-05T16:02:59Z</time></trkpt><trkpt lat="43.777095289537066" lon="11.439488397537193"><ele>131.33333333333334</ele><time>2026-05-05T16:03:00Z</time></trkpt><trkpt lat="43.777165278422906" lon="11.439525589340482"><ele>133.66666666666669</ele><time>2026-05-05T16:03:01Z</time></trkpt><trkpt lat="43.7772361743197" lon="11.439567793872099"><ele>136.0</ele><time>2026-05-05T16:03:02Z</time></trkpt><trkpt lat="43.77731072061876" lon="11.439594322929882"><ele>136.0</ele><time>2026-05-05T16:03:02.999Z</time></trkpt><trkpt lat="43.77738859370901" lon="11.439608985445604"><ele>136.0</ele><time>2026-05-05T16:03:03.999Z</time></trkpt><trkpt lat="43.777466506766864" lon="11.43962252939566"><ele>136.0</ele><time>2026-05-05T16:03:04.999Z</time></trkpt><trkpt lat="43.77755173342353" lon="11.439637564861707"><ele>136.0</ele><time>2026-05-05T16:03:05.999Z</time></trkpt><trkpt lat="43.77764359942931" lon="11.439652238528236"><ele>136.0</ele><time>2026-05-05T16:03:06.999Z</time></trkpt><trkpt lat="43.7777434218747" lon="11.439666886733088"><ele>136.0</ele><time>2026-05-05T16:03:07.999Z</time></trkpt><trkpt lat="43.7778518903479" lon="11.439682773094104"><ele>137.0</ele><time>2026-05-05T16:03:08.999Z</time></trkpt><trkpt lat="43.77795292874659" lon="11.4396992202713"><ele>138.0</ele><time>2026-05-05T16:03:09.999Z</time></trkpt><trkpt lat="43.77805698046685" lon="11.439716628585012"><ele>139.0</ele><time>2026-05-05T16:03:10.999Z</time></trkpt><trkpt lat="43.778158005177254" lon="11.439733714865861"><ele>140.0</ele><time>2026-05-05T16:03:11.999Z</time></trkpt><trkpt lat="43.7782592705227" lon="11.439747707428486"><ele>141.0</ele><time>2026-05-05T16:03:12.999Z</time></trkpt><trkpt lat="43.77835735449628" lon="11.439780348792782"><ele>141.0</ele><time>2026-05-05T16:03:13.999Z</time></trkpt><trkpt lat="43.77844729509831" lon="11.439788960859195"><ele>141.0</ele><time>2026-05-05T16:03:14.999Z</time></trkpt><trkpt lat="43.77852680419834" lon="11.439766418891493"><ele>141.0</ele><time>2026-05-05T16:03:15.999Z</time></trkpt><trkpt lat="43.778592760223056" lon="11.439759107256744"><ele>141.0</ele><time>2026-05-05T16:03:16.999Z</time></trkpt><trkpt lat="43.778676465107196" lon="11.439706246745464"><ele>141.0</ele><time>2026-05-05T16:03:18.999Z</time></trkpt><trkpt lat="43.778698736654164" lon="11.439612913953967"><ele>141.0</ele><time>2026-05-05T16:03:19.999Z</time></trkpt><trkpt lat="43.77867468560256" lon="11.439492468349256"><ele>164.0</ele><time>2026-05-05T16:03:21.999Z</time></trkpt><trkpt lat="43.77867009974701" lon="11.439374915784235"><ele>164.0</ele><time>2026-05-05T16:03:23.999Z</time></trkpt></trkseg></trk></gpx>